<?xml version='1.0' encoding='UTF-8'?><gpx version="1.1" creator="JPX - https://github.com/jenetics/jpx" xmlns="http://www.topografix.com/GPX/1/1"><trk><trkseg><trkpt lat="45.0706499" lon="8.4389051"><ele>167.0</ele><time>2026-03-29T12:52:53.903Z</time></trkpt><trkpt lat="45.070655" lon="8.4390065"><ele>167.0</ele><time>2026-03-29T12:53:03.911Z</time></trkpt><trkpt lat="45.0706645" lon="8.439108"><ele>167.0</ele><time>2026-03-29T12:53:12.074Z</time></trkpt><trkpt lat="45.0706329" lon="8.4391888"><ele>167.0</ele><time>2026-03-29T12:53:53.037Z</time></trkpt><trkpt lat="45.0706272" lon="8.4392897"><ele>167.0</ele><time>2026-03-29T12:54:03.045Z</time></trkpt><trkpt lat="45.0706553" lon="8.4393972"><ele>167.0</ele><time>2026-03-29T12:54:07.067Z</time></trkpt><trkpt lat="45.0706683" lon="8.4394919"><ele>167.0</ele><time>2026-03-29T12:54:12.051Z</time></trkpt><trkpt lat="45.0707038" lon="8.4396507"><ele>166.0</ele><time>2026-03-29T12:55:04.029Z</time></trkpt><trkpt lat="45.0707093" lon="8.439749"><ele>165.0</ele><time>2026-03-29T12:55:08.031Z</time></trkpt><trkpt lat="45.0707259" lon="8.4398385"><ele>164.0</ele><time>2026-03-29T12:55:12.3Z</time></trkpt><trkpt lat="45.0707202" lon="8.439935"><ele>163.0</ele><time>2026-03-29T12:55:18.005Z</time></trkpt><trkpt lat="45.0707279" lon="8.4400333"><ele>162.0</ele><time>2026-03-29T12:55:28.004Z</time></trkpt><trkpt lat="45.0707323" lon="8.4401314"><ele>161.0</ele><time>2026-03-29T12:55:33.01Z</time></trkpt><trkpt lat="45.070737" lon="8.4402294"><ele>160.0</ele><time>2026-03-29T12:55:37.993Z</time></trkpt><trkpt lat="45.0707429" lon="8.4403426"><ele>160.0</ele><time>2026-03-29T12:55:43.013Z</time></trkpt><trkpt lat="45.0707541" lon="8.440434"><ele>160.0</ele><time>2026-03-29T12:55:48.017Z</time></trkpt><trkpt lat="45.0707964" lon="8.4405009"><ele>160.0</ele><time>2026-03-29T12:56:00.002Z</time></trkpt><trkpt lat="45.070817" lon="8.4406014"><ele>160.0</ele><time>2026-03-29T12:56:06.034Z</time></trkpt><trkpt lat="45.0708273" lon="8.4407035"><ele>160.0</ele><time>2026-03-29T12:56:11.933Z</time></trkpt><trkpt lat="45.070841" lon="8.4407933"><ele>160.0</ele><time>2026-03-29T12:56:17.013Z</time></trkpt><trkpt lat="45.0708745" lon="8.4408846"><ele>160.0</ele><time>2026-03-29T12:56:29.009Z</time></trkpt><trkpt lat="45.0709172" lon="8.4409673"><ele>160.0</ele><time>2026-03-29T12:56:36.028Z</time></trkpt><trkpt lat="45.070948" lon="8.4410458"><ele>160.0</ele><time>2026-03-29T12:56:41.007Z</time></trkpt><trkpt lat="45.0709645" lon="8.4411531"><ele>160.0</ele><time>2026-03-29T12:56:56.037Z</time></trkpt><trkpt lat="45.0709981" lon="8.4412327"><ele>160.0</ele><time>2026-03-29T12:57:01.914Z</time></trkpt><trkpt lat="45.0710309" lon="8.4413188"><ele>160.0</ele><time>2026-03-29T12:57:07.014Z</time></trkpt><trkpt lat="45.0710568" lon="8.4414147"><ele>160.0</ele><time>2026-03-29T12:57:13.028Z</time></trkpt><trkpt lat="45.0710828" lon="8.4415054"><ele>160.0</ele><time>2026-03-29T12:57:18.891Z</time></trkpt><trkpt lat="45.0711091" lon="8.441592"><ele>160.0</ele><time>2026-03-29T12:57:24.015Z</time></trkpt><trkpt lat="45.0711492" lon="8.4416821"><ele>160.0</ele><time>2026-03-29T12:57:29Z</time></trkpt><trkpt lat="45.0711705" lon="8.4417777"><ele>160.0</ele><time>2026-03-29T12:57:35.006Z</time></trkpt><trkpt lat="45.0712023" lon="8.4418749"><ele>160.0</ele><time>2026-03-29T12:57:42.019Z</time></trkpt><trkpt lat="45.0712364" lon="8.4419631"><ele>160.0</ele><time>2026-03-29T12:57:47.015Z</time></trkpt><trkpt lat="45.0712705" lon="8.4420524"><ele>160.0</ele><time>2026-03-29T12:58:06.017Z</time></trkpt><trkpt lat="45.0713252" lon="8.4421302"><ele>160.0</ele><time>2026-03-29T12:58:10.017Z</time></trkpt><trkpt lat="45.0713529" lon="8.4422268"><ele>159.28571428571428</ele><time>2026-03-29T12:58:16.009Z</time></trkpt><trkpt lat="45.0714112" lon="8.4422946"><ele>158.57142857142858</ele><time>2026-03-29T12:58:22.028Z</time></trkpt><trkpt lat="45.0714627" lon="8.4423762"><ele>157.85714285714286</ele><time>2026-03-29T12:58:28.02Z</time></trkpt><trkpt lat="45.0714944" lon="8.4424546"><ele>157.14285714285714</ele><time>2026-03-29T12:58:40.02Z</time></trkpt><trkpt lat="45.0715396" lon="8.4425316"><ele>156.42857142857142</ele><time>2026-03-29T12:58:46.021Z</time></trkpt><trkpt lat="45.0715591" lon="8.4426325"><ele>155.71428571428572</ele><time>2026-03-29T12:58:52.015Z</time></trkpt><trkpt lat="45.0715803" lon="8.4427176"><ele>155.0</ele><time>2026-03-29T12:58:57.021Z</time></trkpt><trkpt lat="45.0716063" lon="8.4428005"><ele>155.0</ele><time>2026-03-29T12:59:02.022Z</time></trkpt><trkpt lat="45.0716102" lon="8.4428901"><ele>155.0</ele><time>2026-03-29T12:59:07.009Z</time></trkpt><trkpt lat="45.0716423" lon="8.4429866"><ele>155.0</ele><time>2026-03-29T12:59:13.011Z</time></trkpt><trkpt lat="45.0716655" lon="8.4430727"><ele>155.0</ele><time>2026-03-29T12:59:17.998Z</time></trkpt><trkpt lat="45.0716767" lon="8.4431733"><ele>155.0</ele><time>2026-03-29T12:59:24.025Z</time></trkpt><trkpt lat="45.0716658" lon="8.4432742"><ele>155.0</ele><time>2026-03-29T12:59:38.034Z</time></trkpt><trkpt lat="45.0716479" lon="8.4433694"><ele>155.0</ele><time>2026-03-29T12:59:44.035Z</time></trkpt><trkpt lat="45.0716255" lon="8.443463"><ele>154.28571428571428</ele><time>2026-03-29T12:59:51.008Z</time></trkpt><trkpt lat="45.0715967" lon="8.4435523"><ele>153.57142857142856</ele><time>2026-03-29T12:59:57.021Z</time></trkpt><trkpt lat="45.0715805" lon="8.4436389"><ele>152.85714285714283</ele><time>2026-03-29T13:00:03.007Z</time></trkpt><trkpt lat="45.0715553" lon="8.4437236"><ele>152.14285714285714</ele><time>2026-03-29T13:00:08.997Z</time></trkpt><trkpt lat="45.0715547" lon="8.443825"><ele>151.42857142857142</ele><time>2026-03-29T13:00:35.008Z</time></trkpt><trkpt lat="45.071525" lon="8.4439242"><ele>150.7142857142857</ele><time>2026-03-29T13:00:40.012Z</time></trkpt><trkpt lat="45.0715038" lon="8.4440191"><ele>150.0</ele><time>2026-03-29T13:00:46.037Z</time></trkpt><trkpt lat="45.0714797" lon="8.4441089"><ele>149.42857142857142</ele><time>2026-03-29T13:00:52.026Z</time></trkpt><trkpt lat="45.0714546" lon="8.4441988"><ele>148.85714285714286</ele><time>2026-03-29T13:00:58.067Z</time></trkpt><trkpt lat="45.07144" lon="8.4442891"><ele>148.28571428571428</ele><time>2026-03-29T13:01:03.01Z</time></trkpt><trkpt lat="45.0714175" lon="8.444388"><ele>147.71428571428572</ele><time>2026-03-29T13:01:10.033Z</time></trkpt><trkpt lat="45.0713821" lon="8.4444791"><ele>147.14285714285714</ele><time>2026-03-29T13:01:16.04Z</time></trkpt><trkpt lat="45.071358" lon="8.4445693"><ele>146.57142857142856</ele><time>2026-03-29T13:01:22.007Z</time></trkpt><trkpt lat="45.0713447" lon="8.4446664"><ele>146.0</ele><time>2026-03-29T13:01:26.955Z</time></trkpt><trkpt lat="45.0713195" lon="8.4447563"><ele>146.0</ele><time>2026-03-29T13:01:33.036Z</time></trkpt><trkpt lat="45.0712985" lon="8.4448455"><ele>146.0</ele><time>2026-03-29T13:01:39Z</time></trkpt><trkpt lat="45.0712798" lon="8.4449399"><ele>146.0</ele><time>2026-03-29T13:01:46.039Z</time></trkpt><trkpt lat="45.0712518" lon="8.4450279"><ele>146.0</ele><time>2026-03-29T13:01:52.027Z</time></trkpt><trkpt lat="45.0712268" lon="8.4451129"><ele>146.0</ele><time>2026-03-29T13:01:57.052Z</time></trkpt><trkpt lat="45.071226" lon="8.4452044"><ele>146.0</ele><time>2026-03-29T13:02:14.03Z</time></trkpt><trkpt lat="45.0711963" lon="8.4452937"><ele>146.0</ele><time>2026-03-29T13:02:17.991Z</time></trkpt><trkpt lat="45.0711615" lon="8.4453893"><ele>146.28571428571428</ele><time>2026-03-29T13:02:23.011Z</time></trkpt><trkpt lat="45.0711396" lon="8.4454738"><ele>146.57142857142858</ele><time>2026-03-29T13:02:27.011Z</time></trkpt><trkpt lat="45.0711145" lon="8.445568"><ele>146.85714285714286</ele><time>2026-03-29T13:02:32.034Z</time></trkpt><trkpt lat="45.0710968" lon="8.4456665"><ele>147.14285714285714</ele><time>2026-03-29T13:02:37.022Z</time></trkpt><trkpt lat="45.071083" lon="8.4457593"><ele>147.42857142857142</ele><time>2026-03-29T13:02:42.028Z</time></trkpt><trkpt lat="45.0710667" lon="8.4458485"><ele>147.71428571428572</ele><time>2026-03-29T13:02:48.044Z</time></trkpt><trkpt lat="45.0710372" lon="8.4459345"><ele>148.0</ele><time>2026-03-29T13:02:54.009Z</time></trkpt><trkpt lat="45.0710165" lon="8.446024"><ele>148.0</ele><time>2026-03-29T13:03:00.015Z</time></trkpt><trkpt lat="45.0709985" lon="8.4461263"><ele>148.0</ele><time>2026-03-29T13:03:07.047Z</time></trkpt><trkpt lat="45.0709722" lon="8.4462086"><ele>148.0</ele><time>2026-03-29T13:03:20.03Z</time></trkpt><trkpt lat="45.0709239" lon="8.4462881"><ele>148.0</ele><time>2026-03-29T13:03:26.026Z</time></trkpt><trkpt lat="45.0709041" lon="8.4463829"><ele>148.0</ele><time>2026-03-29T13:03:31.952Z</time></trkpt><trkpt lat="45.0708686" lon="8.4464684"><ele>148.0</ele><time>2026-03-29T13:03:38.01Z</time></trkpt><trkpt lat="45.0708346" lon="8.446546"><ele>148.0</ele><time>2026-03-29T13:03:44Z</time></trkpt><trkpt lat="45.0707859" lon="8.4466212"><ele>147.0</ele><time>2026-03-29T13:03:51.016Z</time></trkpt><trkpt lat="45.0707448" lon="8.4467014"><ele>146.0</ele><time>2026-03-29T13:03:58.029Z</time></trkpt><trkpt lat="45.0706996" lon="8.4467779"><ele>145.0</ele><time>2026-03-29T13:04:05.015Z</time></trkpt><trkpt lat="45.0706744" lon="8.4468696"><ele>144.0</ele><time>2026-03-29T13:04:11.009Z</time></trkpt><trkpt lat="45.0706521" lon="8.4469582"><ele>143.0</ele><time>2026-03-29T13:04:18.02Z</time></trkpt><trkpt lat="45.0706104" lon="8.4470506"><ele>142.0</ele><time>2026-03-29T13:04:35.032Z</time></trkpt><trkpt lat="45.0705579" lon="8.4471197"><ele>141.0</ele><time>2026-03-29T13:04:41.037Z</time></trkpt><trkpt lat="45.0705161" lon="8.4471864"><ele>140.85714285714286</ele><time>2026-03-29T13:04:46.017Z</time></trkpt><trkpt lat="45.0704709" lon="8.4472535"><ele>140.71428571428572</ele><time>2026-03-29T13:04:51.051Z</time></trkpt><trkpt lat="45.0704146" lon="8.4473196"><ele>140.57142857142856</ele><time>2026-03-29T13:04:58.036Z</time></trkpt><trkpt lat="45.0703599" lon="8.4473769"><ele>140.42857142857144</ele><time>2026-03-29T13:05:05.036Z</time></trkpt><trkpt lat="45.0703061" lon="8.447438"><ele>140.28571428571428</ele><time>2026-03-29T13:05:13.012Z</time></trkpt><trkpt lat="45.0702566" lon="8.4474997"><ele>140.14285714285714</ele><time>2026-03-29T13:05:21.029Z</time></trkpt><trkpt lat="45.0702021" lon="8.447569"><ele>140.0</ele><time>2026-03-29T13:05:27.019Z</time></trkpt><trkpt lat="45.0701502" lon="8.447633"><ele>140.0</ele><time>2026-03-29T13:05:33.031Z</time></trkpt><trkpt lat="45.0701008" lon="8.4477138"><ele>140.0</ele><time>2026-03-29T13:05:39.004Z</time></trkpt><trkpt lat="45.0700703" lon="8.4477982"><ele>140.0</ele><time>2026-03-29T13:05:43.976Z</time></trkpt><trkpt lat="45.0700323" lon="8.4478718"><ele>140.0</ele><time>2026-03-29T13:05:49.993Z</time></trkpt><trkpt lat="45.0699789" lon="8.4479433"><ele>140.0</ele><time>2026-03-29T13:05:56.051Z</time></trkpt><trkpt lat="45.0699301" lon="8.4480043"><ele>140.0</ele><time>2026-03-29T13:06:01.033Z</time></trkpt><trkpt lat="45.0698821" lon="8.4480664"><ele>140.0</ele><time>2026-03-29T13:06:06.96Z</time></trkpt><trkpt lat="45.0698284" lon="8.4481315"><ele>139.28571428571428</ele><time>2026-03-29T13:06:12.035Z</time></trkpt><trkpt lat="45.0697842" lon="8.4482037"><ele>138.57142857142856</ele><time>2026-03-29T13:06:18.023Z</time></trkpt><trkpt lat="45.069726" lon="8.448257"><ele>137.85714285714286</ele><time>2026-03-29T13:06:24.026Z</time></trkpt><trkpt lat="45.0696807" lon="8.4483226"><ele>137.14285714285714</ele><time>2026-03-29T13:06:30.046Z</time></trkpt><trkpt lat="45.0696304" lon="8.4483785"><ele>136.42857142857142</ele><time>2026-03-29T13:06:38.036Z</time></trkpt><trkpt lat="45.0695686" lon="8.448422"><ele>135.71428571428572</ele><time>2026-03-29T13:06:44.025Z</time></trkpt><trkpt lat="45.0695138" lon="8.4484829"><ele>135.0</ele><time>2026-03-29T13:06:50.04Z</time></trkpt><trkpt lat="45.0694647" lon="8.4485551"><ele>135.0</ele><time>2026-03-29T13:06:56.039Z</time></trkpt><trkpt lat="45.0694146" lon="8.4486261"><ele>135.0</ele><time>2026-03-29T13:07:00.995Z</time></trkpt><trkpt lat="45.0693467" lon="8.4486642"><ele>135.0</ele><time>2026-03-29T13:07:06.988Z</time></trkpt><trkpt lat="45.0692763" lon="8.4486444"><ele>135.0</ele><time>2026-03-29T13:07:12.03Z</time></trkpt><trkpt lat="45.0692213" lon="8.4485741"><ele>135.0</ele><time>2026-03-29T13:07:16.043Z</time></trkpt><trkpt lat="45.0691601" lon="8.4485389"><ele>135.0</ele><time>2026-03-29T13:07:20.999Z</time></trkpt><trkpt lat="45.0690891" lon="8.4485154"><ele>135.0</ele><time>2026-03-29T13:07:25.989Z</time></trkpt><trkpt lat="45.0690264" lon="8.4484877"><ele>135.42857142857142</ele><time>2026-03-29T13:07:31.007Z</time></trkpt><trkpt lat="45.0689673" lon="8.4484336"><ele>135.85714285714283</ele><time>2026-03-29T13:07:36.033Z</time></trkpt><trkpt lat="45.0689048" lon="8.4484056"><ele>136.28571428571428</ele><time>2026-03-29T13:07:41.03Z</time></trkpt><trkpt lat="45.0688459" lon="8.4483731"><ele>136.71428571428572</ele><time>2026-03-29T13:07:46.033Z</time></trkpt><trkpt lat="45.0687931" lon="8.4483201"><ele>137.14285714285717</ele><time>2026-03-29T13:07:50.961Z</time></trkpt><trkpt lat="45.0687325" lon="8.4482792"><ele>137.57142857142858</ele><time>2026-03-29T13:07:59Z</time></trkpt><trkpt lat="45.0686675" lon="8.4482566"><ele>138.0</ele><time>2026-03-29T13:08:04.033Z</time></trkpt><trkpt lat="45.0685944" lon="8.4482703"><ele>138.0</ele><time>2026-03-29T13:08:23.035Z</time></trkpt><trkpt lat="45.0685254" lon="8.4482556"><ele>138.0</ele><time>2026-03-29T13:08:26.978Z</time></trkpt><trkpt lat="45.0684568" lon="8.4482606"><ele>138.0</ele><time>2026-03-29T13:08:31.996Z</time></trkpt><trkpt lat="45.0683883" lon="8.4482582"><ele>138.0</ele><time>2026-03-29T13:08:37.011Z</time></trkpt><trkpt lat="45.0683255" lon="8.448246"><ele>138.0</ele><time>2026-03-29T13:08:43.991Z</time></trkpt><trkpt lat="45.0682679" lon="8.4482059"><ele>138.0</ele><time>2026-03-29T13:08:49.007Z</time></trkpt><trkpt lat="45.06821" lon="8.4481646"><ele>138.0</ele><time>2026-03-29T13:08:55.021Z</time></trkpt><trkpt lat="45.0681533" lon="8.4481129"><ele>138.42857142857144</ele><time>2026-03-29T13:09:01.024Z</time></trkpt><trkpt lat="45.0681028" lon="8.4480568"><ele>138.85714285714286</ele><time>2026-03-29T13:09:08.027Z</time></trkpt><trkpt lat="45.0680386" lon="8.4480209"><ele>139.28571428571428</ele><time>2026-03-29T13:09:13.938Z</time></trkpt><trkpt lat="45.0679931" lon="8.4479471"><ele>139.71428571428572</ele><time>2026-03-29T13:09:22.023Z</time></trkpt><trkpt lat="45.0679393" lon="8.4478791"><ele>140.14285714285714</ele><time>2026-03-29T13:09:31.043Z</time></trkpt><trkpt lat="45.0678925" lon="8.4478194"><ele>140.57142857142858</ele><time>2026-03-29T13:09:38.037Z</time></trkpt><trkpt lat="45.0678601" lon="8.4477317"><ele>141.0</ele><time>2026-03-29T13:09:45.013Z</time></trkpt><trkpt lat="45.0678336" lon="8.4476489"><ele>141.57142857142858</ele><time>2026-03-29T13:09:52.041Z</time></trkpt><trkpt lat="45.0677983" lon="8.4475611"><ele>142.14285714285714</ele><time>2026-03-29T13:10:00.029Z</time></trkpt><trkpt lat="45.0677605" lon="8.4474885"><ele>142.71428571428572</ele><time>2026-03-29T13:10:07.022Z</time></trkpt><trkpt lat="45.0677011" lon="8.4474515"><ele>143.28571428571428</ele><time>2026-03-29T13:10:15.02Z</time></trkpt><trkpt lat="45.0676378" lon="8.4474563"><ele>143.85714285714286</ele><time>2026-03-29T13:10:21.024Z</time></trkpt><trkpt lat="45.0675815" lon="8.4475297"><ele>144.42857142857144</ele><time>2026-03-29T13:10:47.029Z</time></trkpt><trkpt lat="45.0675187" lon="8.4475472"><ele>145.0</ele><time>2026-03-29T13:10:52.032Z</time></trkpt><trkpt lat="45.0674411" lon="8.4475428"><ele>145.42857142857144</ele><time>2026-03-29T13:10:57.044Z</time></trkpt><trkpt lat="45.0673654" lon="8.4475542"><ele>145.85714285714286</ele><time>2026-03-29T13:11:02.01Z</time></trkpt><trkpt lat="45.0673021" lon="8.4475822"><ele>146.28571428571428</ele><time>2026-03-29T13:11:06.995Z</time></trkpt><trkpt lat="45.0672233" lon="8.4475752"><ele>146.71428571428572</ele><time>2026-03-29T13:11:12.036Z</time></trkpt><trkpt lat="45.0671574" lon="8.4475875"><ele>147.14285714285714</ele><time>2026-03-29T13:11:17.018Z</time></trkpt><trkpt lat="45.0670903" lon="8.4475976"><ele>147.57142857142858</ele><time>2026-03-29T13:11:23.044Z</time></trkpt><trkpt lat="45.0670267" lon="8.4476082"><ele>148.0</ele><time>2026-03-29T13:11:28.035Z</time></trkpt><trkpt lat="45.0669531" lon="8.4476127"><ele>148.0</ele><time>2026-03-29T13:11:34.03Z</time></trkpt><trkpt lat="45.0668904" lon="8.4476329"><ele>148.0</ele><time>2026-03-29T13:11:39.005Z</time></trkpt><trkpt lat="45.0668218" lon="8.4476157"><ele>148.0</ele><time>2026-03-29T13:11:45.041Z</time></trkpt><trkpt lat="45.066755" lon="8.4475804"><ele>148.0</ele><time>2026-03-29T13:11:50.957Z</time></trkpt><trkpt lat="45.0666967" lon="8.4475196"><ele>148.0</ele><time>2026-03-29T13:11:57.03Z</time></trkpt><trkpt lat="45.0666418" lon="8.4474639"><ele>148.0</ele><time>2026-03-29T13:12:03.025Z</time></trkpt><trkpt lat="45.0665883" lon="8.4474053"><ele>148.0</ele><time>2026-03-29T13:12:08.033Z</time></trkpt><trkpt lat="45.0665372" lon="8.4473488"><ele>147.71428571428572</ele><time>2026-03-29T13:12:14.035Z</time></trkpt><trkpt lat="45.0664792" lon="8.4472946"><ele>147.42857142857142</ele><time>2026-03-29T13:12:28.023Z</time></trkpt><trkpt lat="45.0664379" lon="8.4472267"><ele>147.14285714285714</ele><time>2026-03-29T13:12:34.042Z</time></trkpt><trkpt lat="45.0664336" lon="8.4471239"><ele>146.85714285714286</ele><time>2026-03-29T13:12:40.019Z</time></trkpt><trkpt lat="45.0664554" lon="8.4470384"><ele>146.57142857142858</ele><time>2026-03-29T13:12:56.036Z</time></trkpt><trkpt lat="45.0664553" lon="8.4469427"><ele>146.28571428571428</ele><time>2026-03-29T13:13:07.967Z</time></trkpt><trkpt lat="45.0664258" lon="8.4468429"><ele>146.0</ele><time>2026-03-29T13:13:12.019Z</time></trkpt><trkpt lat="45.0663936" lon="8.4467555"><ele>146.0</ele><time>2026-03-29T13:13:17.021Z</time></trkpt><trkpt lat="45.0663696" lon="8.4466728"><ele>146.0</ele><time>2026-03-29T13:13:24.043Z</time></trkpt><trkpt lat="45.0663751" lon="8.4465773"><ele>146.0</ele><time>2026-03-29T13:14:20.988Z</time></trkpt><trkpt lat="45.0663899" lon="8.446477"><ele>146.0</ele><time>2026-03-29T13:14:25.661Z</time></trkpt><trkpt lat="45.0663925" lon="8.446374"><ele>146.0</ele><time>2026-03-29T13:14:31.027Z</time></trkpt><trkpt lat="45.0663816" lon="8.4462795"><ele>146.0</ele><time>2026-03-29T13:14:36.016Z</time></trkpt><trkpt lat="45.0663679" lon="8.4461803"><ele>146.0</ele><time>2026-03-29T13:14:42.036Z</time></trkpt><trkpt lat="45.0663338" lon="8.4460976"><ele>146.42857142857142</ele><time>2026-03-29T13:14:49.007Z</time></trkpt><trkpt lat="45.0663242" lon="8.4460034"><ele>146.85714285714286</ele><time>2026-03-29T13:14:56.025Z</time></trkpt><trkpt lat="45.0663255" lon="8.4459108"><ele>147.28571428571428</ele><time>2026-03-29T13:15:02.023Z</time></trkpt><trkpt lat="45.0663203" lon="8.4458171"><ele>147.71428571428572</ele><time>2026-03-29T13:15:18.033Z</time></trkpt><trkpt lat="45.0663349" lon="8.445725"><ele>148.14285714285714</ele><time>2026-03-29T13:15:22.019Z</time></trkpt><trkpt lat="45.0663378" lon="8.4456202"><ele>148.57142857142856</ele><time>2026-03-29T13:15:27.041Z</time></trkpt><trkpt lat="45.0663006" lon="8.4455346"><ele>149.0</ele><time>2026-03-29T13:15:59.927Z</time></trkpt><trkpt lat="45.0663241" lon="8.4454471"><ele>149.14285714285714</ele><time>2026-03-29T13:16:04.021Z</time></trkpt><trkpt lat="45.0663317" lon="8.4453549"><ele>149.28571428571428</ele><time>2026-03-29T13:16:08.06Z</time></trkpt><trkpt lat="45.0663395" lon="8.4452612"><ele>149.42857142857142</ele><time>2026-03-29T13:16:11.994Z</time></trkpt><trkpt lat="45.0663278" lon="8.4451665"><ele>149.57142857142856</ele><time>2026-03-29T13:16:17Z</time></trkpt><trkpt lat="45.0663205" lon="8.4450613"><ele>149.71428571428572</ele><time>2026-03-29T13:16:23.007Z</time></trkpt><trkpt lat="45.0663101" lon="8.4449708"><ele>149.85714285714283</ele><time>2026-03-29T13:16:27.023Z</time></trkpt><trkpt lat="45.0663173" lon="8.4448799"><ele>150.0</ele><time>2026-03-29T13:16:31.046Z</time></trkpt><trkpt lat="45.0663187" lon="8.4447864"><ele>149.99999999999997</ele><time>2026-03-29T13:16:35.02Z</time></trkpt><trkpt lat="45.0663165" lon="8.4446829"><ele>150.0</ele><time>2026-03-29T13:16:40.004Z</time></trkpt><trkpt lat="45.0663213" lon="8.4445923"><ele>150.0</ele><time>2026-03-29T13:16:45.032Z</time></trkpt><trkpt lat="45.0663193" lon="8.4444881"><ele>150.0</ele><time>2026-03-29T13:16:50.043Z</time></trkpt><trkpt lat="45.0663168" lon="8.4443985"><ele>150.0</ele><time>2026-03-29T13:16:55.014Z</time></trkpt><trkpt lat="45.0663354" lon="8.4443094"><ele>149.99999999999997</ele><time>2026-03-29T13:17:00.035Z</time></trkpt><trkpt lat="45.0663219" lon="8.4442114"><ele>150.0</ele><time>2026-03-29T13:17:06.041Z</time></trkpt><trkpt lat="45.0663152" lon="8.4441087"><ele>149.7142857142857</ele><time>2026-03-29T13:17:11.026Z</time></trkpt><trkpt lat="45.0663318" lon="8.444012"><ele>149.42857142857142</ele><time>2026-03-29T13:17:16.043Z</time></trkpt><trkpt lat="45.0663475" lon="8.4439239"><ele>149.14285714285714</ele><time>2026-03-29T13:17:21.009Z</time></trkpt><trkpt lat="45.0663574" lon="8.4438283"><ele>148.85714285714283</ele><time>2026-03-29T13:17:26.016Z</time></trkpt><trkpt lat="45.0663395" lon="8.4437267"><ele>148.57142857142856</ele><time>2026-03-29T13:17:37.046Z</time></trkpt><trkpt lat="45.0663462" lon="8.4436228"><ele>148.28571428571428</ele><time>2026-03-29T13:17:41.032Z</time></trkpt><trkpt lat="45.0663563" lon="8.4435198"><ele>148.0</ele><time>2026-03-29T13:17:45.933Z</time></trkpt><trkpt lat="45.0663792" lon="8.443427"><ele>147.42857142857144</ele><time>2026-03-29T13:17:51.013Z</time></trkpt><trkpt lat="45.0663963" lon="8.4433299"><ele>146.85714285714286</ele><time>2026-03-29T13:17:56.039Z</time></trkpt><trkpt lat="45.066419" lon="8.4432274"><ele>146.28571428571428</ele><time>2026-03-29T13:18:01.036Z</time></trkpt><trkpt lat="45.066436" lon="8.4431263"><ele>145.71428571428572</ele><time>2026-03-29T13:18:07.046Z</time></trkpt><trkpt lat="45.0664639" lon="8.443045"><ele>145.14285714285714</ele><time>2026-03-29T13:18:12.055Z</time></trkpt><trkpt lat="45.0664875" lon="8.4429521"><ele>144.57142857142858</ele><time>2026-03-29T13:18:16.954Z</time></trkpt><trkpt lat="45.0665181" lon="8.4428607"><ele>144.0</ele><time>2026-03-29T13:18:25.039Z</time></trkpt><trkpt lat="45.0665644" lon="8.4427814"><ele>144.00000000000003</ele><time>2026-03-29T13:18:30.011Z</time></trkpt><trkpt lat="45.0665972" lon="8.4427026"><ele>144.0</ele><time>2026-03-29T13:18:35.028Z</time></trkpt><trkpt lat="45.0666214" lon="8.4426116"><ele>144.0</ele><time>2026-03-29T13:18:41.024Z</time></trkpt><trkpt lat="45.0666715" lon="8.4425307"><ele>144.0</ele><time>2026-03-29T13:18:47.009Z</time></trkpt><trkpt lat="45.0667072" lon="8.4424512"><ele>144.0</ele><time>2026-03-29T13:18:52.023Z</time></trkpt><trkpt lat="45.0667217" lon="8.4423544"><ele>144.00000000000003</ele><time>2026-03-29T13:18:58.039Z</time></trkpt><trkpt lat="45.0667465" lon="8.4422639"><ele>144.0</ele><time>2026-03-29T13:19:03.992Z</time></trkpt><trkpt lat="45.0667693" lon="8.4421805"><ele>145.14285714285717</ele><time>2026-03-29T13:19:11.046Z</time></trkpt><trkpt lat="45.0668249" lon="8.4421255"><ele>146.28571428571428</ele><time>2026-03-29T13:19:17.032Z</time></trkpt><trkpt lat="45.06686" lon="8.4420513"><ele>147.42857142857144</ele><time>2026-03-29T13:19:22.038Z</time></trkpt><trkpt lat="45.0668972" lon="8.4419673"><ele>148.57142857142858</ele><time>2026-03-29T13:19:27.04Z</time></trkpt><trkpt lat="45.0669351" lon="8.441892"><ele>149.71428571428572</ele><time>2026-03-29T13:19:33.017Z</time></trkpt><trkpt lat="45.0669555" lon="8.4418054"><ele>150.85714285714286</ele><time>2026-03-29T13:19:38.047Z</time></trkpt><trkpt lat="45.0670108" lon="8.4417353"><ele>152.0</ele><time>2026-03-29T13:20:09.018Z</time></trkpt><trkpt lat="45.0670587" lon="8.4416748"><ele>152.0</ele><time>2026-03-29T13:20:14.048Z</time></trkpt><trkpt lat="45.0671083" lon="8.4415966"><ele>152.0</ele><time>2026-03-29T13:20:20.034Z</time></trkpt><trkpt lat="45.067164" lon="8.4415383"><ele>152.0</ele><time>2026-03-29T13:20:26.046Z</time></trkpt><trkpt lat="45.0672095" lon="8.4414545"><ele>152.0</ele><time>2026-03-29T13:20:30.949Z</time></trkpt><trkpt lat="45.067258" lon="8.4413966"><ele>152.0</ele><time>2026-03-29T13:20:35.048Z</time></trkpt><trkpt lat="45.067321" lon="8.4413317"><ele>152.0</ele><time>2026-03-29T13:20:40.052Z</time></trkpt><trkpt lat="45.0673767" lon="8.4412817"><ele>152.0</ele><time>2026-03-29T13:20:45.995Z</time></trkpt><trkpt lat="45.0674294" lon="8.4412132"><ele>152.57142857142856</ele><time>2026-03-29T13:20:51.016Z</time></trkpt><trkpt lat="45.0674666" lon="8.4411278"><ele>153.14285714285717</ele><time>2026-03-29T13:20:57.045Z</time></trkpt><trkpt lat="45.0675283" lon="8.4410776"><ele>153.71428571428572</ele><time>2026-03-29T13:21:06.029Z</time></trkpt><trkpt lat="45.0675719" lon="8.4410085"><ele>154.28571428571428</ele><time>2026-03-29T13:21:10.041Z</time></trkpt><trkpt lat="45.0676228" lon="8.4409339"><ele>154.85714285714283</ele><time>2026-03-29T13:21:15.047Z</time></trkpt><trkpt lat="45.0676791" lon="8.440868"><ele>155.42857142857144</ele><time>2026-03-29T13:21:21.003Z</time></trkpt><trkpt lat="45.0677285" lon="8.4407986"><ele>156.0</ele><time>2026-03-29T13:21:26.053Z</time></trkpt><trkpt lat="45.0677955" lon="8.4407504"><ele>156.0</ele><time>2026-03-29T13:21:42.034Z</time></trkpt><trkpt lat="45.0678431" lon="8.4406831"><ele>156.0</ele><time>2026-03-29T13:21:47.045Z</time></trkpt><trkpt lat="45.0679002" lon="8.4406243"><ele>156.0</ele><time>2026-03-29T13:21:57.039Z</time></trkpt><trkpt lat="45.0679509" lon="8.440555"><ele>156.0</ele><time>2026-03-29T13:22:02.035Z</time></trkpt><trkpt lat="45.0679983" lon="8.4404717"><ele>156.0</ele><time>2026-03-29T13:22:12.007Z</time></trkpt><trkpt lat="45.0680619" lon="8.4404274"><ele>156.0</ele><time>2026-03-29T13:22:17.019Z</time></trkpt><trkpt lat="45.0681137" lon="8.4403646"><ele>156.0</ele><time>2026-03-29T13:22:22.036Z</time></trkpt><trkpt lat="45.0681561" lon="8.4402929"><ele>156.0</ele><time>2026-03-29T13:22:27.051Z</time></trkpt><trkpt lat="45.0682172" lon="8.4402311"><ele>156.0</ele><time>2026-03-29T13:22:33.006Z</time></trkpt><trkpt lat="45.0682722" lon="8.4401617"><ele>156.0</ele><time>2026-03-29T13:22:38.04Z</time></trkpt><trkpt lat="45.0683264" lon="8.4400906"><ele>156.0</ele><time>2026-03-29T13:22:43.045Z</time></trkpt><trkpt lat="45.0683829" lon="8.4400316"><ele>156.0</ele><time>2026-03-29T13:22:48.037Z</time></trkpt><trkpt lat="45.0684378" lon="8.439962"><ele>156.0</ele><time>2026-03-29T13:22:54.034Z</time></trkpt><trkpt lat="45.0684939" lon="8.4398963"><ele>156.0</ele><time>2026-03-29T13:22:59.031Z</time></trkpt><trkpt lat="45.0685202" lon="8.4398051"><ele>156.2857142857143</ele><time>2026-03-29T13:23:05.042Z</time></trkpt><trkpt lat="45.0685085" lon="8.4397106"><ele>156.57142857142856</ele><time>2026-03-29T13:23:10.945Z</time></trkpt><trkpt lat="45.068468" lon="8.4396407"><ele>156.85714285714286</ele><time>2026-03-29T13:23:15.991Z</time></trkpt><trkpt lat="45.068428" lon="8.4395565"><ele>157.14285714285717</ele><time>2026-03-29T13:23:23.042Z</time></trkpt><trkpt lat="45.0684336" lon="8.4394592"><ele>157.42857142857144</ele><time>2026-03-29T13:23:29.016Z</time></trkpt><trkpt lat="45.0684768" lon="8.439394"><ele>157.71428571428572</ele><time>2026-03-29T13:23:46.032Z</time></trkpt><trkpt lat="45.0685025" lon="8.4393065"><ele>158.0</ele><time>2026-03-29T13:23:52.04Z</time></trkpt><trkpt lat="45.0684934" lon="8.4392087"><ele>157.00000000000003</ele><time>2026-03-29T13:23:59.012Z</time></trkpt><trkpt lat="45.068517" lon="8.4391176"><ele>156.0</ele><time>2026-03-29T13:24:07.028Z</time></trkpt><trkpt lat="45.0684598" lon="8.4390425"><ele>155.0</ele><time>2026-03-29T13:24:12.01Z</time></trkpt><trkpt lat="45.0684131" lon="8.4389611"><ele>154.0</ele><time>2026-03-29T13:24:15.987Z</time></trkpt><trkpt lat="45.0684184" lon="8.4388603"><ele>153.0</ele><time>2026-03-29T13:24:22.037Z</time></trkpt><trkpt lat="45.0684874" lon="8.4388276"><ele>152.00000000000003</ele><time>2026-03-29T13:24:27.052Z</time></trkpt><trkpt lat="45.068547" lon="8.4387833"><ele>151.0</ele><time>2026-03-29T13:24:34.031Z</time></trkpt><trkpt lat="45.0686041" lon="8.4387253"><ele>150.2857142857143</ele><time>2026-03-29T13:24:39.02Z</time></trkpt><trkpt lat="45.0686587" lon="8.4386637"><ele>149.57142857142858</ele><time>2026-03-29T13:24:45.047Z</time></trkpt><trkpt lat="45.0687109" lon="8.4386122"><ele>148.85714285714286</ele><time>2026-03-29T13:24:51.049Z</time></trkpt><trkpt lat="45.0687581" lon="8.4385485"><ele>148.14285714285717</ele><time>2026-03-29T13:25:03.044Z</time></trkpt><trkpt lat="45.0688162" lon="8.4384989"><ele>147.42857142857144</ele><time>2026-03-29T13:25:09.02Z</time></trkpt><trkpt lat="45.0688703" lon="8.4384393"><ele>146.71428571428572</ele><time>2026-03-29T13:25:15.04Z</time></trkpt><trkpt lat="45.0689177" lon="8.4383764"><ele>146.0</ele><time>2026-03-29T13:25:21.038Z</time></trkpt><trkpt lat="45.0689186" lon="8.4382844"><ele>146.0</ele><time>2026-03-29T13:25:30.037Z</time></trkpt><trkpt lat="45.0689494" lon="8.4382021"><ele>146.0</ele><time>2026-03-29T13:25:42.045Z</time></trkpt><trkpt lat="45.0690059" lon="8.4381491"><ele>146.0</ele><time>2026-03-29T13:25:48.043Z</time></trkpt><trkpt lat="45.0690594" lon="8.4380817"><ele>146.0</ele><time>2026-03-29T13:26:00.077Z</time></trkpt><trkpt lat="45.0691218" lon="8.4380257"><ele>146.0</ele><time>2026-03-29T13:26:20.044Z</time></trkpt><trkpt lat="45.0691787" lon="8.4379862"><ele>146.0</ele><time>2026-03-29T13:26:27.04Z</time></trkpt><trkpt lat="45.0692276" lon="8.4379146"><ele>146.0</ele><time>2026-03-29T13:26:33.027Z</time></trkpt><trkpt lat="45.0692326" lon="8.4378241"><ele>146.14285714285714</ele><time>2026-03-29T13:26:40.957Z</time></trkpt><trkpt lat="45.0691758" lon="8.4377587"><ele>146.28571428571428</ele><time>2026-03-29T13:26:46.024Z</time></trkpt><trkpt lat="45.069122" lon="8.4377068"><ele>146.42857142857144</ele><time>2026-03-29T13:26:52.058Z</time></trkpt><trkpt lat="45.0690939" lon="8.4376267"><ele>146.57142857142856</ele><time>2026-03-29T13:26:59.051Z</time></trkpt><trkpt lat="45.0690648" lon="8.4375419"><ele>146.71428571428572</ele><time>2026-03-29T13:27:04.023Z</time></trkpt><trkpt lat="45.0690159" lon="8.4374804"><ele>146.85714285714286</ele><time>2026-03-29T13:27:10.042Z</time></trkpt><trkpt lat="45.0689888" lon="8.4373846"><ele>147.0</ele><time>2026-03-29T13:27:17.052Z</time></trkpt><trkpt lat="45.0689641" lon="8.437291"><ele>147.0</ele><time>2026-03-29T13:27:53.043Z</time></trkpt><trkpt lat="45.068911" lon="8.437234"><ele>147.0</ele><time>2026-03-29T13:28:07.997Z</time></trkpt><trkpt lat="45.0688815" lon="8.4371233"><ele>147.0</ele><time>2026-03-29T13:28:35.045Z</time></trkpt><trkpt lat="45.0688668" lon="8.4370256"><ele>147.0</ele><time>2026-03-29T13:28:44.06Z</time></trkpt><trkpt lat="45.0689103" lon="8.436948"><ele>147.0</ele><time>2026-03-29T13:28:53.035Z</time></trkpt><trkpt lat="45.0689629" lon="8.4368882"><ele>147.0</ele><time>2026-03-29T13:28:59.034Z</time></trkpt><trkpt lat="45.0690295" lon="8.4368693"><ele>147.0</ele><time>2026-03-29T13:29:30.059Z</time></trkpt><trkpt lat="45.0690797" lon="8.4367942"><ele>147.85714285714286</ele><time>2026-03-29T13:29:37.047Z</time></trkpt><trkpt lat="45.0691303" lon="8.4367326"><ele>148.71428571428572</ele><time>2026-03-29T13:29:42.046Z</time></trkpt><trkpt lat="45.0691752" lon="8.4366674"><ele>149.57142857142856</ele><time>2026-03-29T13:29:47.032Z</time></trkpt><trkpt lat="45.0692216" lon="8.4365734"><ele>150.42857142857144</ele><time>2026-03-29T13:29:57.073Z</time></trkpt><trkpt lat="45.0692774" lon="8.4364959"><ele>151.28571428571428</ele><time>2026-03-29T13:30:03.041Z</time></trkpt><trkpt lat="45.0693082" lon="8.4364128"><ele>152.14285714285714</ele><time>2026-03-29T13:30:09.014Z</time></trkpt><trkpt lat="45.0693655" lon="8.4363466"><ele>153.0</ele><time>2026-03-29T13:30:15.06Z</time></trkpt><trkpt lat="45.069412" lon="8.4362851"><ele>153.0</ele><time>2026-03-29T13:30:22.049Z</time></trkpt><trkpt lat="45.0694728" lon="8.4362369"><ele>153.0</ele><time>2026-03-29T13:30:28.062Z</time></trkpt><trkpt lat="45.0694494" lon="8.4361468"><ele>153.0</ele><time>2026-03-29T13:30:33.053Z</time></trkpt><trkpt lat="45.0693964" lon="8.4360806"><ele>153.0</ele><time>2026-03-29T13:30:38.038Z</time></trkpt><trkpt lat="45.0693616" lon="8.4359869"><ele>153.0</ele><time>2026-03-29T13:30:45.083Z</time></trkpt><trkpt lat="45.0693158" lon="8.4359123"><ele>153.0</ele><time>2026-03-29T13:30:51.967Z</time></trkpt><trkpt lat="45.0692719" lon="8.435832"><ele>153.0</ele><time>2026-03-29T13:30:58.057Z</time></trkpt><trkpt lat="45.0692293" lon="8.4357659"><ele>153.0</ele><time>2026-03-29T13:31:04.065Z</time></trkpt><trkpt lat="45.0691867" lon="8.4356863"><ele>153.0</ele><time>2026-03-29T13:31:12.04Z</time></trkpt><trkpt lat="45.0691542" lon="8.435599"><ele>153.0</ele><time>2026-03-29T13:31:20.041Z</time></trkpt><trkpt lat="45.0691158" lon="8.4355127"><ele>153.0</ele><time>2026-03-29T13:31:26.817Z</time></trkpt><trkpt lat="45.0690612" lon="8.4354538"><ele>153.0</ele><time>2026-03-29T13:31:38.055Z</time></trkpt><trkpt lat="45.0690283" lon="8.4353717"><ele>153.0</ele><time>2026-03-29T13:31:43.034Z</time></trkpt><trkpt lat="45.0689862" lon="8.4352979"><ele>153.0</ele><time>2026-03-29T13:31:51.021Z</time></trkpt><trkpt lat="45.0689428" lon="8.4352206"><ele>154.71428571428572</ele><time>2026-03-29T13:31:59.051Z</time></trkpt><trkpt lat="45.068903" lon="8.4351366"><ele>156.42857142857144</ele><time>2026-03-29T13:32:09.034Z</time></trkpt><trkpt lat="45.0688645" lon="8.4350659"><ele>158.14285714285717</ele><time>2026-03-29T13:32:18.042Z</time></trkpt><trkpt lat="45.0688263" lon="8.4349898"><ele>159.85714285714286</ele><time>2026-03-29T13:32:28.057Z</time></trkpt><trkpt lat="45.0687817" lon="8.4349198"><ele>161.57142857142858</ele><time>2026-03-29T13:32:37.037Z</time></trkpt><trkpt lat="45.0687505" lon="8.4348378"><ele>163.2857142857143</ele><time>2026-03-29T13:32:47.044Z</time></trkpt><trkpt lat="45.0687056" lon="8.4347669"><ele>165.0</ele><time>2026-03-29T13:32:55.044Z</time></trkpt><trkpt lat="45.0686712" lon="8.4346834"><ele>165.14285714285717</ele><time>2026-03-29T13:33:06.057Z</time></trkpt><trkpt lat="45.0686263" lon="8.4346125"><ele>165.28571428571428</ele><time>2026-03-29T13:33:16.034Z</time></trkpt><trkpt lat="45.0685849" lon="8.4345382"><ele>165.42857142857144</ele><time>2026-03-29T13:33:26.046Z</time></trkpt><trkpt lat="45.0685416" lon="8.4344681"><ele>165.57142857142858</ele><time>2026-03-29T13:33:34.051Z</time></trkpt><trkpt lat="45.0685045" lon="8.4343947"><ele>165.71428571428572</ele><time>2026-03-29T13:33:43.034Z</time></trkpt><trkpt lat="45.0684728" lon="8.4343096"><ele>165.85714285714286</ele><time>2026-03-29T13:33:53.037Z</time></trkpt><trkpt lat="45.0684384" lon="8.4342175"><ele>166.0</ele><time>2026-03-29T13:34:03.013Z</time></trkpt><trkpt lat="45.0684957" lon="8.434147"><ele>166.0</ele><time>2026-03-29T13:34:09.053Z</time></trkpt><trkpt lat="45.0685573" lon="8.4341153"><ele>166.0</ele><time>2026-03-29T13:34:14.014Z</time></trkpt><trkpt lat="45.0686162" lon="8.4340784"><ele>166.0</ele><time>2026-03-29T13:34:20.048Z</time></trkpt><trkpt lat="45.0686842" lon="8.4340394"><ele>166.0</ele><time>2026-03-29T13:34:25.087Z</time></trkpt><trkpt lat="45.0687328" lon="8.4339649"><ele>166.0</ele><time>2026-03-29T13:34:31.052Z</time></trkpt><trkpt lat="45.0687964" lon="8.4339094"><ele>166.0</ele><time>2026-03-29T13:34:36.068Z</time></trkpt><trkpt lat="45.068828" lon="8.4338255"><ele>166.0</ele><time>2026-03-29T13:34:42.074Z</time></trkpt><trkpt lat="45.068817" lon="8.4337194"><ele>165.14285714285714</ele><time>2026-03-29T13:34:47.975Z</time></trkpt><trkpt lat="45.0688317" lon="8.4336277"><ele>164.2857142857143</ele><time>2026-03-29T13:34:53.988Z</time></trkpt><trkpt lat="45.068813" lon="8.4335383"><ele>163.42857142857144</ele><time>2026-03-29T13:35:00.055Z</time></trkpt><trkpt lat="45.068817" lon="8.4334456"><ele>162.57142857142856</ele><time>2026-03-29T13:35:06.991Z</time></trkpt><trkpt lat="45.0688011" lon="8.433351"><ele>161.71428571428572</ele><time>2026-03-29T13:39:19.041Z</time></trkpt><trkpt lat="45.0688196" lon="8.4334457"><ele>160.85714285714286</ele><time>2026-03-29T13:46:39.038Z</time></trkpt><trkpt lat="45.068825" lon="8.433535"><ele>160.0</ele><time>2026-03-29T13:46:46.07Z</time></trkpt><trkpt lat="45.0688354" lon="8.4336262"><ele>160.0</ele><time>2026-03-29T13:46:58.057Z</time></trkpt><trkpt lat="45.0688386" lon="8.4337252"><ele>160.0</ele><time>2026-03-29T13:47:08.04Z</time></trkpt><trkpt lat="45.0688366" lon="8.4338171"><ele>160.0</ele><time>2026-03-29T13:47:17.064Z</time></trkpt><trkpt lat="45.0689021" lon="8.433829"><ele>160.0</ele><time>2026-03-29T13:47:30.044Z</time></trkpt><trkpt lat="45.0689594" lon="8.433776"><ele>160.0</ele><time>2026-03-29T13:47:37.055Z</time></trkpt><trkpt lat="45.0690191" lon="8.4337228"><ele>160.0</ele><time>2026-03-29T13:47:44.021Z</time></trkpt><trkpt lat="45.0690796" lon="8.4336812"><ele>160.0</ele><time>2026-03-29T13:47:50.082Z</time></trkpt><trkpt lat="45.0691363" lon="8.4336132"><ele>161.42857142857142</ele><time>2026-03-29T13:47:56.074Z</time></trkpt><trkpt lat="45.0691857" lon="8.4335533"><ele>162.85714285714286</ele><time>2026-03-29T13:48:02.03Z</time></trkpt><trkpt lat="45.0692417" lon="8.4334956"><ele>164.28571428571428</ele><time>2026-03-29T13:48:08.062Z</time></trkpt><trkpt lat="45.0692973" lon="8.4334325"><ele>165.71428571428572</ele><time>2026-03-29T13:48:15.062Z</time></trkpt><trkpt lat="45.0693571" lon="8.4333901"><ele>167.14285714285714</ele><time>2026-03-29T13:48:32.057Z</time></trkpt><trkpt lat="45.0694144" lon="8.4333123"><ele>168.57142857142858</ele><time>2026-03-29T13:48:37.076Z</time></trkpt><trkpt lat="45.0694541" lon="8.4332334"><ele>170.0</ele><time>2026-03-29T13:48:41.981Z</time></trkpt><trkpt lat="45.0694846" lon="8.4331466"><ele>170.0</ele><time>2026-03-29T13:48:47.082Z</time></trkpt><trkpt lat="45.0695494" lon="8.4331007"><ele>170.0</ele><time>2026-03-29T13:48:52.98Z</time></trkpt><trkpt lat="45.0696191" lon="8.43305"><ele>170.0</ele><time>2026-03-29T13:48:58.045Z</time></trkpt><trkpt lat="45.0696686" lon="8.4329692"><ele>170.0</ele><time>2026-03-29T13:49:04.056Z</time></trkpt><trkpt lat="45.0697314" lon="8.4329162"><ele>170.0</ele><time>2026-03-29T13:49:10.048Z</time></trkpt><trkpt lat="45.0697927" lon="8.4328607"><ele>170.0</ele><time>2026-03-29T13:49:15.069Z</time></trkpt><trkpt lat="45.0698392" lon="8.4328001"><ele>170.0</ele><time>2026-03-29T13:49:20.067Z</time></trkpt><trkpt lat="45.0698921" lon="8.4327309"><ele>170.0</ele><time>2026-03-29T13:49:26.04Z</time></trkpt><trkpt lat="45.069941" lon="8.4326716"><ele>170.0</ele><time>2026-03-29T13:49:31.073Z</time></trkpt><trkpt lat="45.0699939" lon="8.4325995"><ele>170.0</ele><time>2026-03-29T13:49:37.05Z</time></trkpt><trkpt lat="45.0700334" lon="8.4325122"><ele>170.0</ele><time>2026-03-29T13:49:44.044Z</time></trkpt><trkpt lat="45.070073" lon="8.4324366"><ele>170.0</ele><time>2026-03-29T13:49:50.067Z</time></trkpt><trkpt lat="45.0701029" lon="8.4323502"><ele>170.0</ele><time>2026-03-29T13:49:56.956Z</time></trkpt><trkpt lat="45.0701407" lon="8.4322769"><ele>170.0</ele><time>2026-03-29T13:50:02.026Z</time></trkpt><trkpt lat="45.0701694" lon="8.4321952"><ele>170.2857142857143</ele><time>2026-03-29T13:50:07.018Z</time></trkpt><trkpt lat="45.0702194" lon="8.4321213"><ele>170.57142857142856</ele><time>2026-03-29T13:50:13.999Z</time></trkpt><trkpt lat="45.0702329" lon="8.4320251"><ele>170.85714285714286</ele><time>2026-03-29T13:50:20.034Z</time></trkpt><trkpt lat="45.0702742" lon="8.4319495"><ele>171.14285714285717</ele><time>2026-03-29T13:50:25.054Z</time></trkpt><trkpt lat="45.0703131" lon="8.431873"><ele>171.42857142857144</ele><time>2026-03-29T13:50:31.042Z</time></trkpt><trkpt lat="45.0703565" lon="8.4317992"><ele>171.71428571428572</ele><time>2026-03-29T13:50:37.064Z</time></trkpt><trkpt lat="45.0703978" lon="8.4317285"><ele>172.0</ele><time>2026-03-29T13:50:42.046Z</time></trkpt><trkpt lat="45.0704393" lon="8.431649"><ele>172.00000000000003</ele><time>2026-03-29T13:50:48.044Z</time></trkpt><trkpt lat="45.0704839" lon="8.4315728"><ele>172.0</ele><time>2026-03-29T13:50:54.07Z</time></trkpt><trkpt lat="45.0705213" lon="8.4314939"><ele>172.0</ele><time>2026-03-29T13:51:00.006Z</time></trkpt><trkpt lat="45.0705651" lon="8.4314189"><ele>172.0</ele><time>2026-03-29T13:51:06.031Z</time></trkpt><trkpt lat="45.0706015" lon="8.4313424"><ele>172.0</ele><time>2026-03-29T13:51:12.071Z</time></trkpt><trkpt lat="45.0706388" lon="8.4312622"><ele>172.00000000000003</ele><time>2026-03-29T13:51:18.078Z</time></trkpt><trkpt lat="45.0706741" lon="8.4311734"><ele>172.0</ele><time>2026-03-29T13:51:24.978Z</time></trkpt><trkpt lat="45.0707133" lon="8.4311031"><ele>171.71428571428572</ele><time>2026-03-29T13:51:30.065Z</time></trkpt><trkpt lat="45.0707462" lon="8.4310191"><ele>171.42857142857144</ele><time>2026-03-29T13:51:36.052Z</time></trkpt><trkpt lat="45.0707928" lon="8.4309415"><ele>171.14285714285717</ele><time>2026-03-29T13:51:42.003Z</time></trkpt><trkpt lat="45.0708299" lon="8.4308663"><ele>170.85714285714286</ele><time>2026-03-29T13:51:47.077Z</time></trkpt><trkpt lat="45.0708718" lon="8.4307887"><ele>170.57142857142856</ele><time>2026-03-29T13:51:53.053Z</time></trkpt><trkpt lat="45.0709123" lon="8.4307185"><ele>170.2857142857143</ele><time>2026-03-29T13:51:58.034Z</time></trkpt><trkpt lat="45.0709428" lon="8.4306291"><ele>170.0</ele><time>2026-03-29T13:52:04.056Z</time></trkpt><trkpt lat="45.070969" lon="8.4305343"><ele>171.57142857142858</ele><time>2026-03-29T13:52:10.03Z</time></trkpt><trkpt lat="45.0709959" lon="8.4304448"><ele>173.14285714285714</ele><time>2026-03-29T13:52:15.058Z</time></trkpt><trkpt lat="45.0710222" lon="8.4303613"><ele>174.71428571428572</ele><time>2026-03-29T13:52:21.083Z</time></trkpt><trkpt lat="45.0710537" lon="8.4302755"><ele>176.28571428571428</ele><time>2026-03-29T13:52:27.075Z</time></trkpt><trkpt lat="45.0710846" lon="8.4301835"><ele>177.85714285714283</ele><time>2026-03-29T13:52:33.054Z</time></trkpt><trkpt lat="45.0711075" lon="8.4300876"><ele>179.42857142857142</ele><time>2026-03-29T13:52:39.072Z</time></trkpt><trkpt lat="45.0711397" lon="8.4300053"><ele>181.0</ele><time>2026-03-29T13:52:44.07Z</time></trkpt><trkpt lat="45.0711697" lon="8.4299213"><ele>181.0</ele><time>2026-03-29T13:52:50.066Z</time></trkpt><trkpt lat="45.0711959" lon="8.4298361"><ele>181.0</ele><time>2026-03-29T13:52:57.004Z</time></trkpt><trkpt lat="45.071214" lon="8.4297458"><ele>181.0</ele><time>2026-03-29T13:53:02.047Z</time></trkpt><trkpt lat="45.0712526" lon="8.4296711"><ele>181.0</ele><time>2026-03-29T13:53:14.081Z</time></trkpt><trkpt lat="45.0712638" lon="8.4295754"><ele>181.0</ele><time>2026-03-29T13:53:19.046Z</time></trkpt><trkpt lat="45.07128" lon="8.4294697"><ele>181.0</ele><time>2026-03-29T13:53:25.054Z</time></trkpt><trkpt lat="45.0713041" lon="8.4293714"><ele>181.0</ele><time>2026-03-29T13:53:31.039Z</time></trkpt><trkpt lat="45.0713312" lon="8.4292783"><ele>181.0</ele><time>2026-03-29T13:53:37.07Z</time></trkpt><trkpt lat="45.0713676" lon="8.4291908"><ele>181.0</ele><time>2026-03-29T13:53:44.078Z</time></trkpt><trkpt lat="45.0714157" lon="8.4291068"><ele>181.0</ele><time>2026-03-29T13:53:50.069Z</time></trkpt><trkpt lat="45.0714848" lon="8.429111"><ele>181.0</ele><time>2026-03-29T13:53:55.053Z</time></trkpt><trkpt lat="45.0715307" lon="8.4291777"><ele>181.0</ele><time>2026-03-29T13:53:59.995Z</time></trkpt><trkpt lat="45.0715859" lon="8.4292454"><ele>181.0</ele><time>2026-03-29T13:54:06.054Z</time></trkpt><trkpt lat="45.0716416" lon="8.4293012"><ele>181.0</ele><time>2026-03-29T13:54:13.05Z</time></trkpt><trkpt lat="45.0717022" lon="8.42934"><ele>180.85714285714286</ele><time>2026-03-29T13:54:17.053Z</time></trkpt><trkpt lat="45.0717663" lon="8.4293732"><ele>180.71428571428572</ele><time>2026-03-29T13:54:23.065Z</time></trkpt><trkpt lat="45.0718254" lon="8.4294244"><ele>180.57142857142856</ele><time>2026-03-29T13:54:29.04Z</time></trkpt><trkpt lat="45.0718951" lon="8.4294527"><ele>180.42857142857144</ele><time>2026-03-29T13:54:34.085Z</time></trkpt><trkpt lat="45.0719599" lon="8.4294986"><ele>180.2857142857143</ele><time>2026-03-29T13:54:40.072Z</time></trkpt><trkpt lat="45.0720218" lon="8.4295153"><ele>180.14285714285714</ele><time>2026-03-29T13:54:46.016Z</time></trkpt><trkpt lat="45.0720941" lon="8.4295462"><ele>180.0</ele><time>2026-03-29T13:54:52.103Z</time></trkpt><trkpt lat="45.0721565" lon="8.4295918"><ele>180.0</ele><time>2026-03-29T13:54:58.072Z</time></trkpt><trkpt lat="45.0722292" lon="8.4296153"><ele>180.0</ele><time>2026-03-29T13:55:04.045Z</time></trkpt><trkpt lat="45.0722983" lon="8.4296596"><ele>180.0</ele><time>2026-03-29T13:55:11.074Z</time></trkpt><trkpt lat="45.0723707" lon="8.4296972"><ele>180.0</ele><time>2026-03-29T13:55:17.053Z</time></trkpt><trkpt lat="45.0724324" lon="8.4297289"><ele>180.0</ele><time>2026-03-29T13:55:22.079Z</time></trkpt><trkpt lat="45.0724956" lon="8.4297742"><ele>180.0</ele><time>2026-03-29T13:55:28.066Z</time></trkpt><trkpt lat="45.0725652" lon="8.4298048"><ele>180.0</ele><time>2026-03-29T13:55:34.079Z</time></trkpt><trkpt lat="45.0726296" lon="8.4298397"><ele>179.28571428571428</ele><time>2026-03-29T13:55:40.063Z</time></trkpt><trkpt lat="45.0726943" lon="8.4298756"><ele>178.57142857142858</ele><time>2026-03-29T13:55:45.08Z</time></trkpt><trkpt lat="45.072757" lon="8.4299052"><ele>177.85714285714286</ele><time>2026-03-29T13:55:51.075Z</time></trkpt><trkpt lat="45.0728276" lon="8.4299458"><ele>177.14285714285714</ele><time>2026-03-29T13:55:59.091Z</time></trkpt><trkpt lat="45.0728889" lon="8.429983"><ele>176.42857142857144</ele><time>2026-03-29T13:56:04.036Z</time></trkpt><trkpt lat="45.0729548" lon="8.4300216"><ele>175.71428571428572</ele><time>2026-03-29T13:56:10.068Z</time></trkpt><trkpt lat="45.0730113" lon="8.4300678"><ele>175.0</ele><time>2026-03-29T13:56:15.078Z</time></trkpt><trkpt lat="45.0730389" lon="8.430158"><ele>175.0</ele><time>2026-03-29T13:56:21.049Z</time></trkpt><trkpt lat="45.073062" lon="8.430245"><ele>175.0</ele><time>2026-03-29T13:56:28.067Z</time></trkpt><trkpt lat="45.0731208" lon="8.4302809"><ele>175.0</ele><time>2026-03-29T13:56:36.05Z</time></trkpt><trkpt lat="45.0731857" lon="8.430305"><ele>175.0</ele><time>2026-03-29T13:56:44.039Z</time></trkpt><trkpt lat="45.0732509" lon="8.4303246"><ele>175.0</ele><time>2026-03-29T13:56:51.045Z</time></trkpt><trkpt lat="45.0733145" lon="8.4303082"><ele>175.0</ele><time>2026-03-29T13:56:56.06Z</time></trkpt><trkpt lat="45.0733753" lon="8.4302517"><ele>175.0</ele><time>2026-03-29T13:57:01.969Z</time></trkpt><trkpt lat="45.0734046" lon="8.4301689"><ele>174.42857142857142</ele><time>2026-03-29T13:57:08.979Z</time></trkpt><trkpt lat="45.0734555" lon="8.4301035"><ele>173.85714285714286</ele><time>2026-03-29T13:57:15.054Z</time></trkpt><trkpt lat="45.0735138" lon="8.4300281"><ele>173.28571428571428</ele><time>2026-03-29T13:57:26.068Z</time></trkpt><trkpt lat="45.0735548" lon="8.4299446"><ele>172.71428571428572</ele><time>2026-03-29T13:57:31.071Z</time></trkpt><trkpt lat="45.0736179" lon="8.4298905"><ele>172.14285714285714</ele><time>2026-03-29T13:57:36.106Z</time></trkpt><trkpt lat="45.0736882" lon="8.4298635"><ele>171.57142857142856</ele><time>2026-03-29T13:57:41.041Z</time></trkpt><trkpt lat="45.0737563" lon="8.4298618"><ele>171.0</ele><time>2026-03-29T13:57:45.086Z</time></trkpt><trkpt lat="45.0738285" lon="8.4298665"><ele>170.99999999999997</ele><time>2026-03-29T13:57:51.076Z</time></trkpt><trkpt lat="45.0738967" lon="8.4298806"><ele>171.0</ele><time>2026-03-29T13:57:59.08Z</time></trkpt><trkpt lat="45.0739654" lon="8.4299028"><ele>171.0</ele><time>2026-03-29T13:58:06.083Z</time></trkpt><trkpt lat="45.0740342" lon="8.429906"><ele>171.0</ele><time>2026-03-29T13:58:12.088Z</time></trkpt><trkpt lat="45.0741029" lon="8.4299243"><ele>171.0</ele><time>2026-03-29T13:58:19.062Z</time></trkpt><trkpt lat="45.0741657" lon="8.4299561"><ele>170.99999999999997</ele><time>2026-03-29T13:58:24.07Z</time></trkpt><trkpt lat="45.0742286" lon="8.4299862"><ele>171.0</ele><time>2026-03-29T13:58:30.073Z</time></trkpt><trkpt lat="45.0743029" lon="8.4299885"><ele>169.99999999999997</ele><time>2026-03-29T13:58:36.066Z</time></trkpt><trkpt lat="45.0743811" lon="8.4299999"><ele>169.0</ele><time>2026-03-29T13:58:42.044Z</time></trkpt><trkpt lat="45.0744474" lon="8.4299928"><ele>168.0</ele><time>2026-03-29T13:58:47.065Z</time></trkpt><trkpt lat="45.0745105" lon="8.4299667"><ele>167.0</ele><time>2026-03-29T13:58:52.072Z</time></trkpt><trkpt lat="45.074565" lon="8.4298973"><ele>166.0</ele><time>2026-03-29T13:58:59.074Z</time></trkpt><trkpt lat="45.0746209" lon="8.4298278"><ele>164.99999999999997</ele><time>2026-03-29T13:59:04.01Z</time></trkpt><trkpt lat="45.0746648" lon="8.4297484"><ele>164.0</ele><time>2026-03-29T13:59:10.077Z</time></trkpt><trkpt lat="45.0746916" lon="8.4296667"><ele>164.85714285714283</ele><time>2026-03-29T13:59:16.051Z</time></trkpt><trkpt lat="45.0747075" lon="8.4295707"><ele>165.71428571428572</ele><time>2026-03-29T13:59:22.054Z</time></trkpt><trkpt lat="45.0747169" lon="8.4294793"><ele>166.57142857142856</ele><time>2026-03-29T13:59:28.072Z</time></trkpt><trkpt lat="45.0747297" lon="8.4293871"><ele>167.42857142857142</ele><time>2026-03-29T13:59:34.068Z</time></trkpt><trkpt lat="45.0747559" lon="8.4293031"><ele>168.28571428571428</ele><time>2026-03-29T13:59:40.052Z</time></trkpt><trkpt lat="45.0748007" lon="8.4292296"><ele>169.14285714285714</ele><time>2026-03-29T13:59:46.052Z</time></trkpt><trkpt lat="45.0748505" lon="8.4291588"><ele>170.0</ele><time>2026-03-29T13:59:56.085Z</time></trkpt><trkpt lat="45.074864" lon="8.4290618"><ele>170.0</ele><time>2026-03-29T14:00:01.053Z</time></trkpt><trkpt lat="45.0748794" lon="8.4289719"><ele>170.0</ele><time>2026-03-29T14:00:06.987Z</time></trkpt><trkpt lat="45.0748941" lon="8.4288724"><ele>170.0</ele><time>2026-03-29T14:00:12.059Z</time></trkpt><trkpt lat="45.0749105" lon="8.428785"><ele>170.0</ele><time>2026-03-29T14:00:17.085Z</time></trkpt><trkpt lat="45.0749113" lon="8.4286806"><ele>170.0</ele><time>2026-03-29T14:00:23.966Z</time></trkpt><trkpt lat="45.0749307" lon="8.4285956"><ele>170.0</ele><time>2026-03-29T14:00:29.077Z</time></trkpt><trkpt lat="45.0749098" lon="8.4285093"><ele>170.0</ele><time>2026-03-29T14:00:34.059Z</time></trkpt><trkpt lat="45.0749081" lon="8.4284193"><ele>170.85714285714286</ele><time>2026-03-29T14:00:39.094Z</time></trkpt><trkpt lat="45.07491" lon="8.4283242"><ele>171.7142857142857</ele><time>2026-03-29T14:00:45.062Z</time></trkpt><trkpt lat="45.0749076" lon="8.4282244"><ele>172.57142857142856</ele><time>2026-03-29T14:00:52.086Z</time></trkpt><trkpt lat="45.074887" lon="8.4281387"><ele>173.42857142857144</ele><time>2026-03-29T14:00:57.085Z</time></trkpt><trkpt lat="45.0748765" lon="8.4280493"><ele>174.28571428571428</ele><time>2026-03-29T14:01:02.055Z</time></trkpt><trkpt lat="45.0748846" lon="8.4279564"><ele>175.14285714285714</ele><time>2026-03-29T14:01:16.047Z</time></trkpt><trkpt lat="45.0748619" lon="8.4278682"><ele>176.0</ele><time>2026-03-29T14:01:21.083Z</time></trkpt><trkpt lat="45.0748495" lon="8.4277667"><ele>176.42857142857144</ele><time>2026-03-29T14:01:27.082Z</time></trkpt><trkpt lat="45.0748471" lon="8.427676"><ele>176.85714285714286</ele><time>2026-03-29T14:01:32.969Z</time></trkpt><trkpt lat="45.0748348" lon="8.4275868"><ele>177.28571428571428</ele><time>2026-03-29T14:01:38.068Z</time></trkpt><trkpt lat="45.0748307" lon="8.4274851"><ele>177.71428571428572</ele><time>2026-03-29T14:01:43.986Z</time></trkpt><trkpt lat="45.0748512" lon="8.4273902"><ele>178.14285714285714</ele><time>2026-03-29T14:01:50.1Z</time></trkpt><trkpt lat="45.0749039" lon="8.4273236"><ele>178.57142857142858</ele><time>2026-03-29T14:01:56.038Z</time></trkpt><trkpt lat="45.074977" lon="8.4273163"><ele>179.0</ele><time>2026-03-29T14:02:02.117Z</time></trkpt><trkpt lat="45.0750401" lon="8.4273418"><ele>175.71428571428572</ele><time>2026-03-29T14:02:08.102Z</time></trkpt><trkpt lat="45.0751061" lon="8.4273365"><ele>172.42857142857144</ele><time>2026-03-29T14:02:13.038Z</time></trkpt><trkpt lat="45.0751715" lon="8.4273357"><ele>169.14285714285717</ele><time>2026-03-29T14:02:19.053Z</time></trkpt><trkpt lat="45.0752377" lon="8.427325"><ele>165.85714285714286</ele><time>2026-03-29T14:02:25.12Z</time></trkpt><trkpt lat="45.0753014" lon="8.4273412"><ele>162.57142857142856</ele><time>2026-03-29T14:02:31.042Z</time></trkpt><trkpt lat="45.075367" lon="8.4273258"><ele>159.2857142857143</ele><time>2026-03-29T14:02:36.085Z</time></trkpt><trkpt lat="45.0754378" lon="8.4273253"><ele>156.0</ele><time>2026-03-29T14:02:42.082Z</time></trkpt><trkpt lat="45.0755009" lon="8.4273361"><ele>156.0</ele><time>2026-03-29T14:02:48.066Z</time></trkpt><trkpt lat="45.0755745" lon="8.4273477"><ele>156.0</ele><time>2026-03-29T14:02:54.06Z</time></trkpt><trkpt lat="45.0756473" lon="8.4273411"><ele>156.0</ele><time>2026-03-29T14:03:00.073Z</time></trkpt><trkpt lat="45.0757202" lon="8.4273466"><ele>156.0</ele><time>2026-03-29T14:03:06.05Z</time></trkpt><trkpt lat="45.0757839" lon="8.4273528"><ele>156.0</ele><time>2026-03-29T14:03:12.074Z</time></trkpt><trkpt lat="45.075855" lon="8.4273486"><ele>156.0</ele><time>2026-03-29T14:03:18.043Z</time></trkpt><trkpt lat="45.0759245" lon="8.4273454"><ele>156.0</ele><time>2026-03-29T14:03:24.018Z</time></trkpt><trkpt lat="45.0759909" lon="8.4273596"><ele>155.2857142857143</ele><time>2026-03-29T14:03:29.086Z</time></trkpt><trkpt lat="45.0760548" lon="8.4273658"><ele>154.57142857142856</ele><time>2026-03-29T14:03:35.048Z</time></trkpt><trkpt lat="45.0761281" lon="8.4273627"><ele>153.85714285714286</ele><time>2026-03-29T14:03:42.064Z</time></trkpt><trkpt lat="45.076196" lon="8.4273765"><ele>153.14285714285717</ele><time>2026-03-29T14:03:49.069Z</time></trkpt><trkpt lat="45.0762672" lon="8.4273806"><ele>152.42857142857144</ele><time>2026-03-29T14:03:57.081Z</time></trkpt><trkpt lat="45.076333" lon="8.4273885"><ele>151.71428571428572</ele><time>2026-03-29T14:04:02.057Z</time></trkpt><trkpt lat="45.0763994" lon="8.4274061"><ele>151.0</ele><time>2026-03-29T14:04:11.067Z</time></trkpt><trkpt lat="45.0763756" lon="8.427489"><ele>151.00000000000003</ele><time>2026-03-29T14:04:18.065Z</time></trkpt><trkpt lat="45.0763256" lon="8.4275474"><ele>151.0</ele><time>2026-03-29T14:04:25.081Z</time></trkpt><trkpt lat="45.0762853" lon="8.4276217"><ele>151.0</ele><time>2026-03-29T14:05:23.036Z</time></trkpt><trkpt lat="45.076236" lon="8.4277001"><ele>151.0</ele><time>2026-03-29T14:05:27.055Z</time></trkpt><trkpt lat="45.0762034" lon="8.4277827"><ele>151.0</ele><time>2026-03-29T14:05:31.079Z</time></trkpt><trkpt lat="45.0761677" lon="8.427876"><ele>151.00000000000003</ele><time>2026-03-29T14:05:38.032Z</time></trkpt><trkpt lat="45.076118" lon="8.4279403"><ele>151.0</ele><time>2026-03-29T14:05:42.985Z</time></trkpt><trkpt lat="45.0760827" lon="8.4280295"><ele>150.85714285714286</ele><time>2026-03-29T14:05:48.036Z</time></trkpt><trkpt lat="45.0760479" lon="8.428104"><ele>150.71428571428572</ele><time>2026-03-29T14:05:55.052Z</time></trkpt><trkpt lat="45.0760007" lon="8.4281648"><ele>150.57142857142856</ele><time>2026-03-29T14:05:59.062Z</time></trkpt><trkpt lat="45.07596" lon="8.4282516"><ele>150.42857142857144</ele><time>2026-03-29T14:06:04.077Z</time></trkpt><trkpt lat="45.075931" lon="8.4283323"><ele>150.28571428571428</ele><time>2026-03-29T14:06:08.997Z</time></trkpt><trkpt lat="45.0759201" lon="8.4284335"><ele>150.14285714285714</ele><time>2026-03-29T14:06:14.016Z</time></trkpt><trkpt lat="45.075936" lon="8.4285276"><ele>150.0</ele><time>2026-03-29T14:06:21.038Z</time></trkpt><trkpt lat="45.0759454" lon="8.4286278"><ele>149.99999999999997</ele><time>2026-03-29T14:06:28.051Z</time></trkpt><trkpt lat="45.0759733" lon="8.4287123"><ele>150.0</ele><time>2026-03-29T14:06:35.04Z</time></trkpt><trkpt lat="45.0759868" lon="8.4288009"><ele>150.0</ele><time>2026-03-29T14:06:40.069Z</time></trkpt><trkpt lat="45.0760224" lon="8.4288819"><ele>150.0</ele><time>2026-03-29T14:06:47.074Z</time></trkpt><trkpt lat="45.0760529" lon="8.4289722"><ele>150.0</ele><time>2026-03-29T14:06:53.98Z</time></trkpt><trkpt lat="45.0760816" lon="8.4290518"><ele>149.99999999999997</ele><time>2026-03-29T14:07:00.042Z</time></trkpt><trkpt lat="45.0761152" lon="8.429129"><ele>150.0</ele><time>2026-03-29T14:07:06.066Z</time></trkpt><trkpt lat="45.0761433" lon="8.4292135"><ele>149.99999999999997</ele><time>2026-03-29T14:07:13.096Z</time></trkpt><trkpt lat="45.0762148" lon="8.4292125"><ele>150.0</ele><time>2026-03-29T14:07:20.073Z</time></trkpt><trkpt lat="45.0762786" lon="8.4291655"><ele>150.0</ele><time>2026-03-29T14:07:27.06Z</time></trkpt><trkpt lat="45.0763432" lon="8.42917"><ele>150.0</ele><time>2026-03-29T14:07:34.062Z</time></trkpt><trkpt lat="45.0764073" lon="8.4292021"><ele>150.0</ele><time>2026-03-29T14:07:43.042Z</time></trkpt><trkpt lat="45.0764408" lon="8.4292835"><ele>149.99999999999997</ele><time>2026-03-29T14:07:50.984Z</time></trkpt><trkpt lat="45.0764781" lon="8.4293575"><ele>150.0</ele><time>2026-03-29T14:07:59.069Z</time></trkpt><trkpt lat="45.0765211" lon="8.4294297"><ele>149.99999999999997</ele><time>2026-03-29T14:08:07.081Z</time></trkpt><trkpt lat="45.076575" lon="8.4294944"><ele>150.0</ele><time>2026-03-29T14:08:14.076Z</time></trkpt><trkpt lat="45.0766049" lon="8.4295777"><ele>150.0</ele><time>2026-03-29T14:08:24.065Z</time></trkpt><trkpt lat="45.0766488" lon="8.4296451"><ele>150.0</ele><time>2026-03-29T14:08:31.083Z</time></trkpt><trkpt lat="45.0766925" lon="8.4297233"><ele>150.0</ele><time>2026-03-29T14:08:39.08Z</time></trkpt><trkpt lat="45.0767387" lon="8.4297962"><ele>149.99999999999997</ele><time>2026-03-29T14:08:47.095Z</time></trkpt><trkpt lat="45.0767871" lon="8.4298633"><ele>150.0</ele><time>2026-03-29T14:08:56.049Z</time></trkpt><trkpt lat="45.0768232" lon="8.4299415"><ele>150.85714285714283</ele><time>2026-03-29T14:09:03.081Z</time></trkpt><trkpt lat="45.0768693" lon="8.4300212"><ele>151.71428571428572</ele><time>2026-03-29T14:09:11.091Z</time></trkpt><trkpt lat="45.0769184" lon="8.4300835"><ele>152.57142857142856</ele><time>2026-03-29T14:09:22.072Z</time></trkpt><trkpt lat="45.0769537" lon="8.4301635"><ele>153.42857142857142</ele><time>2026-03-29T14:09:34.055Z</time></trkpt><trkpt lat="45.0769982" lon="8.4302439"><ele>154.28571428571428</ele><time>2026-03-29T14:09:44.088Z</time></trkpt><trkpt lat="45.0770427" lon="8.4303163"><ele>155.14285714285714</ele><time>2026-03-29T14:09:52.093Z</time></trkpt><trkpt lat="45.0770817" lon="8.430387"><ele>156.0</ele><time>2026-03-29T14:10:01.936Z</time></trkpt><trkpt lat="45.0771215" lon="8.4304592"><ele>157.0</ele><time>2026-03-29T14:10:11.094Z</time></trkpt><trkpt lat="45.077167" lon="8.4305392"><ele>158.0</ele><time>2026-03-29T14:10:21.085Z</time></trkpt><trkpt lat="45.0772074" lon="8.4306102"><ele>159.0</ele><time>2026-03-29T14:10:31.088Z</time></trkpt><trkpt lat="45.0772516" lon="8.4306813"><ele>160.0</ele><time>2026-03-29T14:10:39.09Z</time></trkpt><trkpt lat="45.0772911" lon="8.4307561"><ele>161.0</ele><time>2026-03-29T14:10:50.063Z</time></trkpt><trkpt lat="45.0773338" lon="8.4308316"><ele>162.0</ele><time>2026-03-29T14:10:57.073Z</time></trkpt><trkpt lat="45.077378" lon="8.4309102"><ele>163.0</ele><time>2026-03-29T14:11:07.077Z</time></trkpt><trkpt lat="45.0773786" lon="8.4310017"><ele>163.0</ele><time>2026-03-29T14:11:16.079Z</time></trkpt><trkpt lat="45.077384" lon="8.4310971"><ele>163.0</ele><time>2026-03-29T14:11:27.086Z</time></trkpt><trkpt lat="45.0773908" lon="8.4311987"><ele>163.0</ele><time>2026-03-29T14:11:35.08Z</time></trkpt><trkpt lat="45.0773633" lon="8.4312835"><ele>163.0</ele><time>2026-03-29T14:11:42.04Z</time></trkpt><trkpt lat="45.0773539" lon="8.4313865"><ele>163.0</ele><time>2026-03-29T14:11:48.989Z</time></trkpt><trkpt lat="45.0773572" lon="8.4314798"><ele>163.0</ele><time>2026-03-29T14:11:55.089Z</time></trkpt><trkpt lat="45.0773524" lon="8.4315703"><ele>163.0</ele><time>2026-03-29T14:13:21.133Z</time></trkpt><trkpt lat="45.0773017" lon="8.4316401"><ele>164.0</ele><time>2026-03-29T14:13:29.128Z</time></trkpt><trkpt lat="45.0772594" lon="8.4317359"><ele>165.0</ele><time>2026-03-29T14:13:38.1Z</time></trkpt><trkpt lat="45.0772133" lon="8.4318072"><ele>166.0</ele><time>2026-03-29T14:13:45.097Z</time></trkpt><trkpt lat="45.0771941" lon="8.4318932"><ele>167.0</ele><time>2026-03-29T14:13:52.12Z</time></trkpt><trkpt lat="45.0771554" lon="8.4319668"><ele>168.0</ele><time>2026-03-29T14:14:54.111Z</time></trkpt><trkpt lat="45.0771483" lon="8.4320615"><ele>169.0</ele><time>2026-03-29T14:15:43.102Z</time></trkpt><trkpt lat="45.0771584" lon="8.4321516"><ele>170.0</ele><time>2026-03-29T14:15:54.094Z</time></trkpt><trkpt lat="45.0771969" lon="8.4322232"><ele>170.0</ele><time>2026-03-29T14:16:35.091Z</time></trkpt><trkpt lat="45.0771746" lon="8.4323145"><ele>170.0</ele><time>2026-03-29T14:17:41.115Z</time></trkpt><trkpt lat="45.077189" lon="8.432412"><ele>170.0</ele><time>2026-03-29T14:18:42.118Z</time></trkpt><trkpt lat="45.0771911" lon="8.4325092"><ele>170.0</ele><time>2026-03-29T14:18:50.108Z</time></trkpt><trkpt lat="45.0772498" lon="8.432546"><ele>170.0</ele><time>2026-03-29T14:19:46.047Z</time></trkpt><trkpt lat="45.0771863" lon="8.4324765"><ele>170.0</ele><time>2026-03-29T14:20:32.079Z</time></trkpt><trkpt lat="45.0771856" lon="8.4323792"><ele>170.0</ele><time>2026-03-29T14:20:38.101Z</time></trkpt><trkpt lat="45.07719" lon="8.4322831"><ele>170.0</ele><time>2026-03-29T14:20:45.074Z</time></trkpt><trkpt lat="45.0771764" lon="8.4321907"><ele>170.0</ele><time>2026-03-29T14:20:53.095Z</time></trkpt><trkpt lat="45.0771676" lon="8.4320984"><ele>170.0</ele><time>2026-03-29T14:21:02.988Z</time></trkpt><trkpt lat="45.0771645" lon="8.4319964"><ele>170.0</ele><time>2026-03-29T14:21:10.047Z</time></trkpt><trkpt lat="45.077204" lon="8.4319248"><ele>170.0</ele><time>2026-03-29T14:21:20.091Z</time></trkpt><trkpt lat="45.0772326" lon="8.4318439"><ele>170.0</ele><time>2026-03-29T14:21:26.107Z</time></trkpt><trkpt lat="45.0772577" lon="8.4317592"><ele>170.0</ele><time>2026-03-29T14:21:32.07Z</time></trkpt><trkpt lat="45.0772769" lon="8.4316666"><ele>170.0</ele><time>2026-03-29T14:21:39.063Z</time></trkpt><trkpt lat="45.0773142" lon="8.4315875"><ele>170.0</ele><time>2026-03-29T14:21:49.093Z</time></trkpt><trkpt lat="45.0773353" lon="8.4314966"><ele>170.0</ele><time>2026-03-29T14:21:54.082Z</time></trkpt><trkpt lat="45.0773493" lon="8.4314033"><ele>170.0</ele><time>2026-03-29T14:21:59.035Z</time></trkpt><trkpt lat="45.0773733" lon="8.4313063"><ele>170.0</ele><time>2026-03-29T14:22:05.106Z</time></trkpt><trkpt lat="45.0774153" lon="8.431239"><ele>170.0</ele><time>2026-03-29T14:22:11.07Z</time></trkpt><trkpt lat="45.0774833" lon="8.4312417"><ele>170.0</ele><time>2026-03-29T14:22:20.07Z</time></trkpt><trkpt lat="45.0775393" lon="8.4312906"><ele>170.57142857142858</ele><time>2026-03-29T14:22:25.104Z</time></trkpt><trkpt lat="45.0775937" lon="8.4313563"><ele>171.14285714285714</ele><time>2026-03-29T14:22:31.076Z</time></trkpt><trkpt lat="45.0775458" lon="8.4312843"><ele>171.71428571428572</ele><time>2026-03-29T14:22:57.09Z</time></trkpt><trkpt lat="45.077482" lon="8.4312622"><ele>172.28571428571428</ele><time>2026-03-29T14:23:04.086Z</time></trkpt><trkpt lat="45.077416" lon="8.4312345"><ele>172.85714285714286</ele><time>2026-03-29T14:23:11.103Z</time></trkpt><trkpt lat="45.077402" lon="8.4311419"><ele>173.42857142857142</ele><time>2026-03-29T14:23:21.074Z</time></trkpt><trkpt lat="45.0773961" lon="8.4310478"><ele>174.0</ele><time>2026-03-29T14:23:30.095Z</time></trkpt><trkpt lat="45.0773873" lon="8.4309595"><ele>172.42857142857142</ele><time>2026-03-29T14:23:39.018Z</time></trkpt><trkpt lat="45.0773804" lon="8.4308698"><ele>170.85714285714286</ele><time>2026-03-29T14:23:46.1Z</time></trkpt><trkpt lat="45.0773429" lon="8.4307885"><ele>169.28571428571428</ele><time>2026-03-29T14:23:53.083Z</time></trkpt><trkpt lat="45.0772888" lon="8.4307236"><ele>167.71428571428572</ele><time>2026-03-29T14:24:02.067Z</time></trkpt><trkpt lat="45.0772552" lon="8.4306478"><ele>166.14285714285714</ele><time>2026-03-29T14:24:09.084Z</time></trkpt><trkpt lat="45.0772089" lon="8.430578"><ele>164.57142857142858</ele><time>2026-03-29T14:24:16.099Z</time></trkpt><trkpt lat="45.0771796" lon="8.4304874"><ele>163.0</ele><time>2026-03-29T14:24:24.11Z</time></trkpt><trkpt lat="45.0771392" lon="8.4304026"><ele>162.0</ele><time>2026-03-29T14:24:31.089Z</time></trkpt><trkpt lat="45.0770937" lon="8.4303385"><ele>161.0</ele><time>2026-03-29T14:24:38.137Z</time></trkpt><trkpt lat="45.0770617" lon="8.4302587"><ele>160.0</ele><time>2026-03-29T14:24:46.106Z</time></trkpt><trkpt lat="45.07701" lon="8.4301832"><ele>159.0</ele><time>2026-03-29T14:24:54.098Z</time></trkpt><trkpt lat="45.076963" lon="8.4301037"><ele>158.0</ele><time>2026-03-29T14:25:07.1Z</time></trkpt><trkpt lat="45.0769073" lon="8.4300574"><ele>157.0</ele><time>2026-03-29T14:25:12.104Z</time></trkpt><trkpt lat="45.0768583" lon="8.42999"><ele>156.0</ele><time>2026-03-29T14:25:19.106Z</time></trkpt><trkpt lat="45.0768146" lon="8.4299135"><ele>156.0</ele><time>2026-03-29T14:25:26.101Z</time></trkpt><trkpt lat="45.0767807" lon="8.4298354"><ele>156.0</ele><time>2026-03-29T14:25:33.07Z</time></trkpt><trkpt lat="45.0767339" lon="8.4297643"><ele>156.0</ele><time>2026-03-29T14:25:40.093Z</time></trkpt><trkpt lat="45.0766812" lon="8.4296923"><ele>156.0</ele><time>2026-03-29T14:25:48.093Z</time></trkpt><trkpt lat="45.0766405" lon="8.4296083"><ele>156.0</ele><time>2026-03-29T14:26:03.081Z</time></trkpt><trkpt lat="45.0765973" lon="8.4295428"><ele>156.0</ele><time>2026-03-29T14:26:08.098Z</time></trkpt><trkpt lat="45.0765556" lon="8.4294598"><ele>156.0</ele><time>2026-03-29T14:26:14.091Z</time></trkpt><trkpt lat="45.0765094" lon="8.4293829"><ele>155.14285714285714</ele><time>2026-03-29T14:26:20.083Z</time></trkpt><trkpt lat="45.0764659" lon="8.429307"><ele>154.28571428571428</ele><time>2026-03-29T14:26:26.09Z</time></trkpt><trkpt lat="45.076426" lon="8.4292349"><ele>153.42857142857142</ele><time>2026-03-29T14:26:31.012Z</time></trkpt><trkpt lat="45.0763731" lon="8.4291757"><ele>152.57142857142856</ele><time>2026-03-29T14:26:37.115Z</time></trkpt><trkpt lat="45.0763094" lon="8.4291543"><ele>151.71428571428572</ele><time>2026-03-29T14:26:42.094Z</time></trkpt><trkpt lat="45.076249" lon="8.4291907"><ele>150.85714285714283</ele><time>2026-03-29T14:26:48.071Z</time></trkpt><trkpt lat="45.0761934" lon="8.4292352"><ele>150.0</ele><time>2026-03-29T14:26:53.098Z</time></trkpt><trkpt lat="45.0761333" lon="8.4292885"><ele>149.99999999999997</ele><time>2026-03-29T14:27:00.087Z</time></trkpt><trkpt lat="45.0761117" lon="8.4293739"><ele>150.0</ele><time>2026-03-29T14:27:05.085Z</time></trkpt><trkpt lat="45.0761351" lon="8.4294745"><ele>150.0</ele><time>2026-03-29T14:27:11.097Z</time></trkpt><trkpt lat="45.0761227" lon="8.4295736"><ele>150.0</ele><time>2026-03-29T14:27:18.099Z</time></trkpt><trkpt lat="45.0760937" lon="8.4296715"><ele>150.0</ele><time>2026-03-29T14:27:24.062Z</time></trkpt><trkpt lat="45.0760672" lon="8.4297588"><ele>149.99999999999997</ele><time>2026-03-29T14:27:30.078Z</time></trkpt><trkpt lat="45.0760465" lon="8.429849"><ele>150.0</ele><time>2026-03-29T14:27:35.071Z</time></trkpt><trkpt lat="45.0760215" lon="8.4299371"><ele>150.14285714285714</ele><time>2026-03-29T14:27:41.098Z</time></trkpt><trkpt lat="45.0759979" lon="8.4300235"><ele>150.28571428571428</ele><time>2026-03-29T14:27:47.114Z</time></trkpt><trkpt lat="45.0759719" lon="8.4301204"><ele>150.42857142857144</ele><time>2026-03-29T14:27:53.101Z</time></trkpt><trkpt lat="45.0759397" lon="8.4302055"><ele>150.57142857142856</ele><time>2026-03-29T14:27:59.096Z</time></trkpt><trkpt lat="45.0759222" lon="8.4302919"><ele>150.71428571428572</ele><time>2026-03-29T14:28:04.038Z</time></trkpt><trkpt lat="45.075906" lon="8.4303861"><ele>150.85714285714286</ele><time>2026-03-29T14:28:11.1Z</time></trkpt><trkpt lat="45.0758873" lon="8.4304789"><ele>151.0</ele><time>2026-03-29T14:28:17.096Z</time></trkpt><trkpt lat="45.0758633" lon="8.4305634"><ele>150.85714285714286</ele><time>2026-03-29T14:28:23.077Z</time></trkpt><trkpt lat="45.075841" lon="8.4306534"><ele>150.71428571428572</ele><time>2026-03-29T14:28:29.063Z</time></trkpt><trkpt lat="45.0758211" lon="8.4307491"><ele>150.57142857142856</ele><time>2026-03-29T14:28:35.104Z</time></trkpt><trkpt lat="45.0757993" lon="8.430833"><ele>150.42857142857144</ele><time>2026-03-29T14:28:40.068Z</time></trkpt><trkpt lat="45.0757765" lon="8.4309263"><ele>150.28571428571428</ele><time>2026-03-29T14:28:45.114Z</time></trkpt><trkpt lat="45.0757543" lon="8.4310138"><ele>150.14285714285714</ele><time>2026-03-29T14:28:52.089Z</time></trkpt><trkpt lat="45.0757312" lon="8.4310971"><ele>150.0</ele><time>2026-03-29T14:28:57.088Z</time></trkpt><trkpt lat="45.0757163" lon="8.4311972"><ele>149.99999999999997</ele><time>2026-03-29T14:29:04.082Z</time></trkpt><trkpt lat="45.0756857" lon="8.4312859"><ele>150.0</ele><time>2026-03-29T14:29:10.104Z</time></trkpt><trkpt lat="45.0756533" lon="8.4313751"><ele>150.0</ele><time>2026-03-29T14:29:17.101Z</time></trkpt><trkpt lat="45.0756284" lon="8.4314665"><ele>150.0</ele><time>2026-03-29T14:29:23.1Z</time></trkpt><trkpt lat="45.0756121" lon="8.4315539"><ele>150.0</ele><time>2026-03-29T14:29:29.075Z</time></trkpt><trkpt lat="45.0755901" lon="8.4316483"><ele>149.99999999999997</ele><time>2026-03-29T14:29:36.105Z</time></trkpt><trkpt lat="45.0755697" lon="8.4317425"><ele>150.0</ele><time>2026-03-29T14:29:42.108Z</time></trkpt><trkpt lat="45.075563" lon="8.4318327"><ele>149.99999999999997</ele><time>2026-03-29T14:29:47.07Z</time></trkpt><trkpt lat="45.0755549" lon="8.4319342"><ele>150.0</ele><time>2026-03-29T14:29:53.109Z</time></trkpt><trkpt lat="45.0755432" lon="8.432038"><ele>150.0</ele><time>2026-03-29T14:29:59.085Z</time></trkpt><trkpt lat="45.0755413" lon="8.432129"><ele>150.0</ele><time>2026-03-29T14:30:04.099Z</time></trkpt><trkpt lat="45.075532" lon="8.4322188"><ele>150.0</ele><time>2026-03-29T14:30:09.097Z</time></trkpt><trkpt lat="45.075515" lon="8.4323151"><ele>149.99999999999997</ele><time>2026-03-29T14:30:15.069Z</time></trkpt><trkpt lat="45.0755045" lon="8.4324131"><ele>150.0</ele><time>2026-03-29T14:30:21.077Z</time></trkpt><trkpt lat="45.0755102" lon="8.4325133"><ele>149.7142857142857</ele><time>2026-03-29T14:30:27.02Z</time></trkpt><trkpt lat="45.075499" lon="8.4326189"><ele>149.42857142857142</ele><time>2026-03-29T14:30:33.07Z</time></trkpt><trkpt lat="45.0754973" lon="8.4327205"><ele>149.14285714285714</ele><time>2026-03-29T14:30:39.11Z</time></trkpt><trkpt lat="45.0754968" lon="8.4328132"><ele>148.85714285714283</ele><time>2026-03-29T14:30:45.092Z</time></trkpt><trkpt lat="45.0754976" lon="8.4329077"><ele>148.57142857142856</ele><time>2026-03-29T14:30:50.086Z</time></trkpt><trkpt lat="45.0754986" lon="8.4330096"><ele>148.28571428571428</ele><time>2026-03-29T14:30:56.088Z</time></trkpt><trkpt lat="45.075504" lon="8.4331104"><ele>148.0</ele><time>2026-03-29T14:31:02.06Z</time></trkpt><trkpt lat="45.075489" lon="8.4332142"><ele>147.71428571428572</ele><time>2026-03-29T14:31:08.108Z</time></trkpt><trkpt lat="45.0754836" lon="8.4333196"><ele>147.42857142857142</ele><time>2026-03-29T14:31:15.102Z</time></trkpt><trkpt lat="45.0754899" lon="8.4334176"><ele>147.14285714285714</ele><time>2026-03-29T14:31:21.087Z</time></trkpt><trkpt lat="45.0754918" lon="8.4335198"><ele>146.85714285714286</ele><time>2026-03-29T14:31:27.998Z</time></trkpt><trkpt lat="45.0754869" lon="8.4336161"><ele>146.57142857142858</ele><time>2026-03-29T14:31:35.082Z</time></trkpt><trkpt lat="45.0754813" lon="8.4337095"><ele>146.28571428571428</ele><time>2026-03-29T14:31:40.062Z</time></trkpt><trkpt lat="45.0754741" lon="8.433804"><ele>146.0</ele><time>2026-03-29T14:31:46.094Z</time></trkpt><trkpt lat="45.0754729" lon="8.4338973"><ele>145.85714285714286</ele><time>2026-03-29T14:31:52.096Z</time></trkpt><trkpt lat="45.0754695" lon="8.4339926"><ele>145.71428571428572</ele><time>2026-03-29T14:31:58.076Z</time></trkpt><trkpt lat="45.0754724" lon="8.4340838"><ele>145.57142857142858</ele><time>2026-03-29T14:32:03.078Z</time></trkpt><trkpt lat="45.0754741" lon="8.4341783"><ele>145.42857142857144</ele><time>2026-03-29T14:32:09.095Z</time></trkpt><trkpt lat="45.0754786" lon="8.4342735"><ele>145.2857142857143</ele><time>2026-03-29T14:32:15.105Z</time></trkpt><trkpt lat="45.0754762" lon="8.4343783"><ele>145.14285714285714</ele><time>2026-03-29T14:32:21.098Z</time></trkpt><trkpt lat="45.0754629" lon="8.4344696"><ele>145.0</ele><time>2026-03-29T14:32:26.112Z</time></trkpt><trkpt lat="45.0754622" lon="8.4345711"><ele>144.85714285714286</ele><time>2026-03-29T14:32:32.073Z</time></trkpt><trkpt lat="45.075464" lon="8.4346725"><ele>144.71428571428572</ele><time>2026-03-29T14:32:38.037Z</time></trkpt><trkpt lat="45.0754602" lon="8.4347711"><ele>144.57142857142858</ele><time>2026-03-29T14:32:45.061Z</time></trkpt><trkpt lat="45.0754681" lon="8.434867"><ele>144.42857142857144</ele><time>2026-03-29T14:32:51.067Z</time></trkpt><trkpt lat="45.0754797" lon="8.4349646"><ele>144.28571428571428</ele><time>2026-03-29T14:32:57.086Z</time></trkpt><trkpt lat="45.0754696" lon="8.4350632"><ele>144.14285714285717</ele><time>2026-03-29T14:33:03.081Z</time></trkpt><trkpt lat="45.0754594" lon="8.435159"><ele>144.0</ele><time>2026-03-29T14:33:08.112Z</time></trkpt><trkpt lat="45.0754537" lon="8.4352553"><ele>144.00000000000003</ele><time>2026-03-29T14:33:14.093Z</time></trkpt><trkpt lat="45.0754478" lon="8.435346"><ele>144.0</ele><time>2026-03-29T14:33:20.1Z</time></trkpt><trkpt lat="45.0754419" lon="8.4354461"><ele>144.0</ele><time>2026-03-29T14:33:26.956Z</time></trkpt><trkpt lat="45.0754616" lon="8.4355414"><ele>144.0</ele><time>2026-03-29T14:33:34.089Z</time></trkpt><trkpt lat="45.0755312" lon="8.4355429"><ele>144.0</ele><time>2026-03-29T14:33:39.095Z</time></trkpt><trkpt lat="45.0756077" lon="8.4355374"><ele>144.00000000000003</ele><time>2026-03-29T14:33:44.104Z</time></trkpt><trkpt lat="45.0756744" lon="8.4355349"><ele>144.0</ele><time>2026-03-29T14:33:49.085Z</time></trkpt><trkpt lat="45.0757425" lon="8.4355557"><ele>143.71428571428572</ele><time>2026-03-29T14:33:57.109Z</time></trkpt><trkpt lat="45.0757832" lon="8.4356344"><ele>143.42857142857144</ele><time>2026-03-29T14:34:02.025Z</time></trkpt><trkpt lat="45.0758466" lon="8.4356651"><ele>143.14285714285714</ele><time>2026-03-29T14:34:10.063Z</time></trkpt><trkpt lat="45.0759042" lon="8.4357074"><ele>142.85714285714286</ele><time>2026-03-29T14:34:17.104Z</time></trkpt><trkpt lat="45.0759612" lon="8.4357582"><ele>142.57142857142856</ele><time>2026-03-29T14:34:24.097Z</time></trkpt><trkpt lat="45.0760248" lon="8.4357793"><ele>142.28571428571428</ele><time>2026-03-29T14:34:29.109Z</time></trkpt><trkpt lat="45.0760865" lon="8.4358291"><ele>142.0</ele><time>2026-03-29T14:34:36.096Z</time></trkpt><trkpt lat="45.0761509" lon="8.4358685"><ele>142.0</ele><time>2026-03-29T14:34:42.088Z</time></trkpt><trkpt lat="45.0762094" lon="8.4359038"><ele>142.0</ele><time>2026-03-29T14:34:49.128Z</time></trkpt><trkpt lat="45.0762741" lon="8.4359517"><ele>142.0</ele><time>2026-03-29T14:34:55.059Z</time></trkpt><trkpt lat="45.0763432" lon="8.4359624"><ele>142.0</ele><time>2026-03-29T14:35:03.082Z</time></trkpt><trkpt lat="45.0764028" lon="8.4360056"><ele>142.0</ele><time>2026-03-29T14:35:09.01Z</time></trkpt><trkpt lat="45.0764629" lon="8.4360416"><ele>142.0</ele><time>2026-03-29T14:35:15.158Z</time></trkpt><trkpt lat="45.0765223" lon="8.4360799"><ele>142.0</ele><time>2026-03-29T14:35:22.002Z</time></trkpt><trkpt lat="45.0765863" lon="8.4361141"><ele>142.85714285714286</ele><time>2026-03-29T14:35:27.018Z</time></trkpt><trkpt lat="45.07665" lon="8.4361395"><ele>143.7142857142857</ele><time>2026-03-29T14:35:34.101Z</time></trkpt><trkpt lat="45.0767124" lon="8.4361739"><ele>144.57142857142856</ele><time>2026-03-29T14:35:40.092Z</time></trkpt><trkpt lat="45.0767758" lon="8.4362096"><ele>145.42857142857142</ele><time>2026-03-29T14:35:47.074Z</time></trkpt><trkpt lat="45.0768417" lon="8.4362476"><ele>146.28571428571428</ele><time>2026-03-29T14:35:55.087Z</time></trkpt><trkpt lat="45.0769019" lon="8.436278"><ele>147.14285714285714</ele><time>2026-03-29T14:36:00.939Z</time></trkpt><trkpt lat="45.076955" lon="8.4363273"><ele>148.0</ele><time>2026-03-29T14:36:08.114Z</time></trkpt><trkpt lat="45.0770178" lon="8.4363539"><ele>148.42857142857144</ele><time>2026-03-29T14:36:15.088Z</time></trkpt><trkpt lat="45.0770752" lon="8.436392"><ele>148.85714285714286</ele><time>2026-03-29T14:36:20.091Z</time></trkpt><trkpt lat="45.077141" lon="8.4364313"><ele>149.28571428571428</ele><time>2026-03-29T14:36:26.122Z</time></trkpt><trkpt lat="45.0772013" lon="8.4364614"><ele>149.71428571428572</ele><time>2026-03-29T14:36:32.073Z</time></trkpt><trkpt lat="45.0772638" lon="8.4364913"><ele>150.14285714285714</ele><time>2026-03-29T14:36:40.079Z</time></trkpt><trkpt lat="45.0773253" lon="8.4365385"><ele>150.57142857142858</ele><time>2026-03-29T14:36:49.127Z</time></trkpt><trkpt lat="45.0773812" lon="8.4365847"><ele>151.0</ele><time>2026-03-29T14:36:55.086Z</time></trkpt><trkpt lat="45.0774459" lon="8.4366265"><ele>152.2857142857143</ele><time>2026-03-29T14:37:02.088Z</time></trkpt><trkpt lat="45.0775046" lon="8.4366829"><ele>153.57142857142858</ele><time>2026-03-29T14:37:12.078Z</time></trkpt><trkpt lat="45.077566" lon="8.4367236"><ele>154.85714285714286</ele><time>2026-03-29T14:37:18.113Z</time></trkpt><trkpt lat="45.0776294" lon="8.4367589"><ele>156.14285714285717</ele><time>2026-03-29T14:37:25.103Z</time></trkpt><trkpt lat="45.0776937" lon="8.4368006"><ele>157.42857142857144</ele><time>2026-03-29T14:37:31.075Z</time></trkpt><trkpt lat="45.0777585" lon="8.4368291"><ele>158.71428571428572</ele><time>2026-03-29T14:37:37.105Z</time></trkpt><trkpt lat="45.0778237" lon="8.4368691"><ele>160.0</ele><time>2026-03-29T14:37:43.102Z</time></trkpt><trkpt lat="45.0778927" lon="8.4369028"><ele>160.0</ele><time>2026-03-29T14:37:49.121Z</time></trkpt><trkpt lat="45.0779492" lon="8.436943"><ele>160.0</ele><time>2026-03-29T14:37:54.719Z</time></trkpt><trkpt lat="45.0780078" lon="8.4369907"><ele>160.0</ele><time>2026-03-29T14:38:02.082Z</time></trkpt><trkpt lat="45.0780682" lon="8.4370282"><ele>160.0</ele><time>2026-03-29T14:38:08.086Z</time></trkpt><trkpt lat="45.0781372" lon="8.4370565"><ele>160.0</ele><time>2026-03-29T14:38:14.082Z</time></trkpt><trkpt lat="45.0781979" lon="8.4370838"><ele>160.0</ele><time>2026-03-29T14:38:19.102Z</time></trkpt><trkpt lat="45.0782478" lon="8.4371473"><ele>160.0</ele><time>2026-03-29T14:38:36.106Z</time></trkpt><trkpt lat="45.0782294" lon="8.4372438"><ele>160.57142857142856</ele><time>2026-03-29T14:38:45.099Z</time></trkpt><trkpt lat="45.0781915" lon="8.4373261"><ele>161.14285714285714</ele><time>2026-03-29T14:38:50.081Z</time></trkpt><trkpt lat="45.0781646" lon="8.4374114"><ele>161.71428571428572</ele><time>2026-03-29T14:39:00.095Z</time></trkpt><trkpt lat="45.0781151" lon="8.4374826"><ele>162.28571428571428</ele><time>2026-03-29T14:39:14.068Z</time></trkpt><trkpt lat="45.0780681" lon="8.4375647"><ele>162.85714285714286</ele><time>2026-03-29T14:39:19.108Z</time></trkpt><trkpt lat="45.0780354" lon="8.4376582"><ele>163.42857142857142</ele><time>2026-03-29T14:39:24.114Z</time></trkpt><trkpt lat="45.078003" lon="8.4377433"><ele>164.0</ele><time>2026-03-29T14:39:29.091Z</time></trkpt><trkpt lat="45.0779484" lon="8.4378035"><ele>163.99999999999997</ele><time>2026-03-29T14:39:35.056Z</time></trkpt><trkpt lat="45.0779191" lon="8.4378869"><ele>164.0</ele><time>2026-03-29T14:39:39.066Z</time></trkpt><trkpt lat="45.0778797" lon="8.4379714"><ele>164.0</ele><time>2026-03-29T14:39:44.062Z</time></trkpt><trkpt lat="45.0778569" lon="8.4380691"><ele>164.0</ele><time>2026-03-29T14:39:50.013Z</time></trkpt><trkpt lat="45.0778182" lon="8.4381403"><ele>164.0</ele><time>2026-03-29T14:39:56.095Z</time></trkpt><trkpt lat="45.0777714" lon="8.4382181"><ele>163.99999999999997</ele><time>2026-03-29T14:40:02.093Z</time></trkpt><trkpt lat="45.0777375" lon="8.4382993"><ele>164.0</ele><time>2026-03-29T14:40:07.129Z</time></trkpt><trkpt lat="45.077701" lon="8.4383851"><ele>163.85714285714283</ele><time>2026-03-29T14:40:12.097Z</time></trkpt><trkpt lat="45.0776572" lon="8.438462"><ele>163.71428571428572</ele><time>2026-03-29T14:40:17.094Z</time></trkpt><trkpt lat="45.0776241" lon="8.43854"><ele>163.57142857142856</ele><time>2026-03-29T14:40:23.014Z</time></trkpt><trkpt lat="45.0776016" lon="8.4386386"><ele>163.42857142857142</ele><time>2026-03-29T14:40:27.995Z</time></trkpt><trkpt lat="45.0775629" lon="8.4387206"><ele>163.28571428571428</ele><time>2026-03-29T14:40:33.069Z</time></trkpt><trkpt lat="45.0775315" lon="8.4388101"><ele>163.14285714285714</ele><time>2026-03-29T14:40:39.075Z</time></trkpt><trkpt lat="45.0775022" lon="8.4389053"><ele>163.0</ele><time>2026-03-29T14:40:45.066Z</time></trkpt><trkpt lat="45.0774819" lon="8.4390045"><ele>163.0</ele><time>2026-03-29T14:40:51.07Z</time></trkpt><trkpt lat="45.0774551" lon="8.4390948"><ele>163.0</ele><time>2026-03-29T14:40:57.075Z</time></trkpt><trkpt lat="45.077424" lon="8.4391835"><ele>163.0</ele><time>2026-03-29T14:41:03.077Z</time></trkpt><trkpt lat="45.0773915" lon="8.4392735"><ele>163.0</ele><time>2026-03-29T14:41:09.069Z</time></trkpt><trkpt lat="45.0773676" lon="8.4393583"><ele>163.0</ele><time>2026-03-29T14:41:14.097Z</time></trkpt><trkpt lat="45.077348" lon="8.4394464"><ele>163.0</ele><time>2026-03-29T14:41:20.075Z</time></trkpt><trkpt lat="45.0773225" lon="8.439528"><ele>163.0</ele><time>2026-03-29T14:41:25.079Z</time></trkpt><trkpt lat="45.0773035" lon="8.4396314"><ele>162.57142857142858</ele><time>2026-03-29T14:41:31.069Z</time></trkpt><trkpt lat="45.077273" lon="8.4397261"><ele>162.14285714285714</ele><time>2026-03-29T14:41:37.082Z</time></trkpt><trkpt lat="45.0772543" lon="8.4398268"><ele>161.71428571428572</ele><time>2026-03-29T14:41:43.071Z</time></trkpt><trkpt lat="45.0772125" lon="8.4399156"><ele>161.28571428571428</ele><time>2026-03-29T14:41:49.065Z</time></trkpt><trkpt lat="45.0771945" lon="8.4400113"><ele>160.85714285714286</ele><time>2026-03-29T14:41:55.089Z</time></trkpt><trkpt lat="45.077154" lon="8.4401022"><ele>160.42857142857142</ele><time>2026-03-29T14:42:01.082Z</time></trkpt><trkpt lat="45.0771333" lon="8.440204"><ele>160.0</ele><time>2026-03-29T14:42:06.103Z</time></trkpt><trkpt lat="45.0770928" lon="8.4402865"><ele>160.0</ele><time>2026-03-29T14:42:12.093Z</time></trkpt><trkpt lat="45.077075" lon="8.4403843"><ele>160.0</ele><time>2026-03-29T14:42:17.099Z</time></trkpt><trkpt lat="45.0770573" lon="8.4404756"><ele>160.0</ele><time>2026-03-29T14:42:22.098Z</time></trkpt><trkpt lat="45.0770385" lon="8.4405685"><ele>160.0</ele><time>2026-03-29T14:42:28.105Z</time></trkpt><trkpt lat="45.0770086" lon="8.4406622"><ele>160.0</ele><time>2026-03-29T14:42:33.113Z</time></trkpt><trkpt lat="45.0769855" lon="8.4407657"><ele>160.0</ele><time>2026-03-29T14:42:39.066Z</time></trkpt><trkpt lat="45.0769522" lon="8.440856"><ele>160.0</ele><time>2026-03-29T14:42:45.105Z</time></trkpt><trkpt lat="45.0769149" lon="8.4409421"><ele>160.0</ele><time>2026-03-29T14:42:51.01Z</time></trkpt><trkpt lat="45.0768832" lon="8.441026"><ele>160.0</ele><time>2026-03-29T14:42:56.093Z</time></trkpt><trkpt lat="45.0768495" lon="8.4411173"><ele>160.0</ele><time>2026-03-29T14:43:02.119Z</time></trkpt><trkpt lat="45.0768136" lon="8.4412083"><ele>160.0</ele><time>2026-03-29T14:43:08.113Z</time></trkpt><trkpt lat="45.0767827" lon="8.4412968"><ele>160.0</ele><time>2026-03-29T14:43:13.076Z</time></trkpt><trkpt lat="45.0767457" lon="8.4413799"><ele>160.0</ele><time>2026-03-29T14:43:19.104Z</time></trkpt><trkpt lat="45.0767148" lon="8.4414749"><ele>160.0</ele><time>2026-03-29T14:43:26.107Z</time></trkpt><trkpt lat="45.0766822" lon="8.4415612"><ele>160.0</ele><time>2026-03-29T14:43:32.106Z</time></trkpt><trkpt lat="45.076637" lon="8.4416286"><ele>160.0</ele><time>2026-03-29T14:43:37.119Z</time></trkpt><trkpt lat="45.0765898" lon="8.4417081"><ele>160.0</ele><time>2026-03-29T14:43:43.082Z</time></trkpt><trkpt lat="45.0765401" lon="8.4417804"><ele>160.0</ele><time>2026-03-29T14:43:49.099Z</time></trkpt><trkpt lat="45.0764915" lon="8.4418554"><ele>160.0</ele><time>2026-03-29T14:43:55.112Z</time></trkpt><trkpt lat="45.076441" lon="8.4419184"><ele>160.0</ele><time>2026-03-29T14:44:00.079Z</time></trkpt><trkpt lat="45.0763814" lon="8.4419689"><ele>160.0</ele><time>2026-03-29T14:44:05.11Z</time></trkpt><trkpt lat="45.0763321" lon="8.4420329"><ele>159.0</ele><time>2026-03-29T14:44:10.101Z</time></trkpt><trkpt lat="45.0762881" lon="8.4421014"><ele>158.0</ele><time>2026-03-29T14:44:16.092Z</time></trkpt><trkpt lat="45.0762431" lon="8.4421701"><ele>157.0</ele><time>2026-03-29T14:44:26.025Z</time></trkpt><trkpt lat="45.0762218" lon="8.4422713"><ele>156.0</ele><time>2026-03-29T14:47:57.098Z</time></trkpt><trkpt lat="45.0762052" lon="8.4423649"><ele>155.0</ele><time>2026-03-29T14:48:06.117Z</time></trkpt><trkpt lat="45.0761903" lon="8.4424676"><ele>154.0</ele><time>2026-03-29T14:48:25.113Z</time></trkpt><trkpt lat="45.0761608" lon="8.4425548"><ele>153.0</ele><time>2026-03-29T14:49:46.119Z</time></trkpt><trkpt lat="45.0761466" lon="8.4426436"><ele>153.0</ele><time>2026-03-29T14:49:51.016Z</time></trkpt><trkpt lat="45.0761113" lon="8.4427493"><ele>153.0</ele><time>2026-03-29T14:50:01.103Z</time></trkpt><trkpt lat="45.0760882" lon="8.4428375"><ele>153.0</ele><time>2026-03-29T14:50:07.113Z</time></trkpt><trkpt lat="45.0760614" lon="8.4429295"><ele>153.0</ele><time>2026-03-29T14:50:13.112Z</time></trkpt><trkpt lat="45.0760345" lon="8.4430116"><ele>153.0</ele><time>2026-03-29T14:50:19.109Z</time></trkpt><trkpt lat="45.0760217" lon="8.4431049"><ele>153.0</ele><time>2026-03-29T14:50:25.092Z</time></trkpt><trkpt lat="45.0759989" lon="8.443198"><ele>153.0</ele><time>2026-03-29T14:50:32.031Z</time></trkpt><trkpt lat="45.075987" lon="8.4432913"><ele>152.85714285714286</ele><time>2026-03-29T14:50:38.119Z</time></trkpt><trkpt lat="45.075965" lon="8.4433848"><ele>152.71428571428572</ele><time>2026-03-29T14:50:45.125Z</time></trkpt><trkpt lat="45.0759048" lon="8.4433443"><ele>152.57142857142856</ele><time>2026-03-29T14:50:53.108Z</time></trkpt><trkpt lat="45.0758452" lon="8.4432997"><ele>152.42857142857144</ele><time>2026-03-29T14:50:59.088Z</time></trkpt><trkpt lat="45.0757829" lon="8.4432596"><ele>152.2857142857143</ele><time>2026-03-29T14:51:05.121Z</time></trkpt><trkpt lat="45.075721" lon="8.4432218"><ele>152.14285714285714</ele><time>2026-03-29T14:51:10.108Z</time></trkpt><trkpt lat="45.0756583" lon="8.443188"><ele>152.0</ele><time>2026-03-29T14:51:15.087Z</time></trkpt><trkpt lat="45.0755984" lon="8.4431317"><ele>151.14285714285714</ele><time>2026-03-29T14:51:26.114Z</time></trkpt><trkpt lat="45.0755353" lon="8.4431234"><ele>150.2857142857143</ele><time>2026-03-29T14:51:30.111Z</time></trkpt><trkpt lat="45.075474" lon="8.4430944"><ele>149.42857142857144</ele><time>2026-03-29T14:51:34.103Z</time></trkpt><trkpt lat="45.0754089" lon="8.4430523"><ele>148.57142857142856</ele><time>2026-03-29T14:51:39.089Z</time></trkpt><trkpt lat="45.075339" lon="8.4430249"><ele>147.71428571428572</ele><time>2026-03-29T14:51:46.072Z</time></trkpt><trkpt lat="45.0752753" lon="8.4429936"><ele>146.85714285714286</ele><time>2026-03-29T14:51:52.109Z</time></trkpt><trkpt lat="45.0752017" lon="8.4429885"><ele>146.0</ele><time>2026-03-29T14:51:58.065Z</time></trkpt><trkpt lat="45.0751454" lon="8.4429434"><ele>146.0</ele><time>2026-03-29T14:52:02.089Z</time></trkpt><trkpt lat="45.0750809" lon="8.4428922"><ele>146.0</ele><time>2026-03-29T14:52:07.112Z</time></trkpt><trkpt lat="45.0750202" lon="8.4428463"><ele>146.0</ele><time>2026-03-29T14:52:13.026Z</time></trkpt><trkpt lat="45.0749537" lon="8.4428085"><ele>146.0</ele><time>2026-03-29T14:52:19.103Z</time></trkpt><trkpt lat="45.0748916" lon="8.4427724"><ele>146.0</ele><time>2026-03-29T14:52:25.066Z</time></trkpt><trkpt lat="45.074822" lon="8.4427253"><ele>146.0</ele><time>2026-03-29T14:52:35.095Z</time></trkpt><trkpt lat="45.0747527" lon="8.44271"><ele>146.0</ele><time>2026-03-29T14:52:39.117Z</time></trkpt><trkpt lat="45.0746909" lon="8.4426702"><ele>145.0</ele><time>2026-03-29T14:52:45.127Z</time></trkpt><trkpt lat="45.0746211" lon="8.4426327"><ele>144.0</ele><time>2026-03-29T14:52:51.09Z</time></trkpt><trkpt lat="45.0745548" lon="8.4425952"><ele>143.0</ele><time>2026-03-29T14:52:56.115Z</time></trkpt><trkpt lat="45.0744912" lon="8.4425571"><ele>142.0</ele><time>2026-03-29T14:53:03.122Z</time></trkpt><trkpt lat="45.0744252" lon="8.4425141"><ele>141.0</ele><time>2026-03-29T14:53:10.032Z</time></trkpt><trkpt lat="45.0743588" lon="8.4424887"><ele>140.0</ele><time>2026-03-29T14:53:15.119Z</time></trkpt><trkpt lat="45.0742993" lon="8.442454"><ele>139.0</ele><time>2026-03-29T14:53:21.124Z</time></trkpt><trkpt lat="45.0742345" lon="8.4424316"><ele>139.0</ele><time>2026-03-29T14:53:26.098Z</time></trkpt><trkpt lat="45.0741737" lon="8.4423871"><ele>139.0</ele><time>2026-03-29T14:53:31.119Z</time></trkpt><trkpt lat="45.0741125" lon="8.4423455"><ele>139.0</ele><time>2026-03-29T14:53:37.124Z</time></trkpt><trkpt lat="45.0740444" lon="8.4423223"><ele>139.0</ele><time>2026-03-29T14:53:42.076Z</time></trkpt><trkpt lat="45.0739716" lon="8.4422928"><ele>139.0</ele><time>2026-03-29T14:53:49.11Z</time></trkpt><trkpt lat="45.0739115" lon="8.4422529"><ele>139.0</ele><time>2026-03-29T14:53:54.117Z</time></trkpt><trkpt lat="45.0738534" lon="8.4422071"><ele>139.0</ele><time>2026-03-29T14:54:00.102Z</time></trkpt><trkpt lat="45.0737874" lon="8.4421962"><ele>139.0</ele><time>2026-03-29T14:54:05.076Z</time></trkpt><trkpt lat="45.0737262" lon="8.4421504"><ele>139.0</ele><time>2026-03-29T14:54:11.109Z</time></trkpt><trkpt lat="45.0736685" lon="8.4421133"><ele>139.0</ele><time>2026-03-29T14:54:16.066Z</time></trkpt><trkpt lat="45.0736091" lon="8.4420743"><ele>139.0</ele><time>2026-03-29T14:54:22.051Z</time></trkpt><trkpt lat="45.0735474" lon="8.4420503"><ele>139.0</ele><time>2026-03-29T14:54:27.134Z</time></trkpt><trkpt lat="45.0734848" lon="8.4420172"><ele>139.0</ele><time>2026-03-29T14:54:34.107Z</time></trkpt><trkpt lat="45.0734235" lon="8.4419831"><ele>139.0</ele><time>2026-03-29T14:54:41.107Z</time></trkpt><trkpt lat="45.0733584" lon="8.4419485"><ele>139.0</ele><time>2026-03-29T14:54:47.121Z</time></trkpt><trkpt lat="45.0732921" lon="8.4419117"><ele>139.0</ele><time>2026-03-29T14:54:53.119Z</time></trkpt><trkpt lat="45.0732298" lon="8.4418816"><ele>139.0</ele><time>2026-03-29T14:54:58.117Z</time></trkpt><trkpt lat="45.0731627" lon="8.4418391"><ele>139.0</ele><time>2026-03-29T14:55:04.099Z</time></trkpt><trkpt lat="45.073098" lon="8.441806"><ele>139.0</ele><time>2026-03-29T14:55:09.117Z</time></trkpt><trkpt lat="45.0730265" lon="8.4417731"><ele>139.0</ele><time>2026-03-29T14:55:14.053Z</time></trkpt><trkpt lat="45.0729586" lon="8.4417297"><ele>139.0</ele><time>2026-03-29T14:55:19.09Z</time></trkpt><trkpt lat="45.0728985" lon="8.4416951"><ele>139.42857142857142</ele><time>2026-03-29T14:55:25.096Z</time></trkpt><trkpt lat="45.0728279" lon="8.4416648"><ele>139.85714285714286</ele><time>2026-03-29T14:55:30.132Z</time></trkpt><trkpt lat="45.0727575" lon="8.4416423"><ele>140.28571428571428</ele><time>2026-03-29T14:55:35.088Z</time></trkpt><trkpt lat="45.0726924" lon="8.4415988"><ele>140.71428571428572</ele><time>2026-03-29T14:55:40.097Z</time></trkpt><trkpt lat="45.0726291" lon="8.4415778"><ele>141.14285714285714</ele><time>2026-03-29T14:55:45.124Z</time></trkpt><trkpt lat="45.0725679" lon="8.4415475"><ele>141.57142857142856</ele><time>2026-03-29T14:55:51.004Z</time></trkpt><trkpt lat="45.0725032" lon="8.4415146"><ele>142.0</ele><time>2026-03-29T14:55:55.116Z</time></trkpt><trkpt lat="45.0724369" lon="8.4414741"><ele>143.71428571428572</ele><time>2026-03-29T14:56:01.108Z</time></trkpt><trkpt lat="45.0723681" lon="8.4414399"><ele>145.42857142857142</ele><time>2026-03-29T14:56:07.085Z</time></trkpt><trkpt lat="45.0722975" lon="8.4414034"><ele>147.14285714285714</ele><time>2026-03-29T14:56:13.104Z</time></trkpt><trkpt lat="45.0722382" lon="8.4413696"><ele>148.85714285714286</ele><time>2026-03-29T14:56:18.119Z</time></trkpt><trkpt lat="45.0721788" lon="8.4413298"><ele>150.57142857142856</ele><time>2026-03-29T14:56:23.085Z</time></trkpt><trkpt lat="45.0721108" lon="8.4412843"><ele>152.28571428571428</ele><time>2026-03-29T14:56:30.118Z</time></trkpt><trkpt lat="45.0720588" lon="8.4412339"><ele>154.0</ele><time>2026-03-29T14:56:35.962Z</time></trkpt><trkpt lat="45.0720133" lon="8.4411664"><ele>154.14285714285714</ele><time>2026-03-29T14:56:41.092Z</time></trkpt><trkpt lat="45.0719783" lon="8.441074"><ele>154.28571428571428</ele><time>2026-03-29T14:56:48.121Z</time></trkpt><trkpt lat="45.0719365" lon="8.4410001"><ele>154.42857142857144</ele><time>2026-03-29T14:56:54.079Z</time></trkpt><trkpt lat="45.0719144" lon="8.4409049"><ele>154.57142857142856</ele><time>2026-03-29T14:57:01.033Z</time></trkpt><trkpt lat="45.0718965" lon="8.4408096"><ele>154.71428571428572</ele><time>2026-03-29T14:57:09.123Z</time></trkpt><trkpt lat="45.0718604" lon="8.4407315"><ele>154.85714285714286</ele><time>2026-03-29T14:57:15.049Z</time></trkpt><trkpt lat="45.0718417" lon="8.4406322"><ele>155.0</ele><time>2026-03-29T14:57:21.147Z</time></trkpt><trkpt lat="45.0718268" lon="8.4405438"><ele>155.0</ele><time>2026-03-29T14:57:26.12Z</time></trkpt><trkpt lat="45.071805" lon="8.4404582"><ele>155.0</ele><time>2026-03-29T14:57:32.128Z</time></trkpt><trkpt lat="45.0717861" lon="8.4403638"><ele>155.0</ele><time>2026-03-29T14:57:37.108Z</time></trkpt><trkpt lat="45.0717696" lon="8.4402744"><ele>155.0</ele><time>2026-03-29T14:57:42.089Z</time></trkpt><trkpt lat="45.0717519" lon="8.4401868"><ele>155.0</ele><time>2026-03-29T14:57:47.12Z</time></trkpt><trkpt lat="45.0717306" lon="8.4400991"><ele>155.0</ele><time>2026-03-29T14:57:52.097Z</time></trkpt><trkpt lat="45.0717124" lon="8.4400106"><ele>155.0</ele><time>2026-03-29T14:57:57.128Z</time></trkpt><trkpt lat="45.0716923" lon="8.439921"><ele>155.0</ele><time>2026-03-29T14:58:03.116Z</time></trkpt><trkpt lat="45.0716704" lon="8.4398324"><ele>155.0</ele><time>2026-03-29T14:58:08.115Z</time></trkpt><trkpt lat="45.0716457" lon="8.4397389"><ele>155.0</ele><time>2026-03-29T14:58:14.12Z</time></trkpt><trkpt lat="45.0716321" lon="8.4396446"><ele>155.0</ele><time>2026-03-29T14:58:19.852Z</time></trkpt><trkpt lat="45.0716086" lon="8.439543"><ele>162.0</ele><time>2026-03-29T14:58:26.049Z</time></trkpt></trkseg></trk></gpx>